<?xml version="1.0" encoding="UTF-8" standalone="no" ?><gpx xmlns="http://www.topografix.com/GPX/1/1" xmlns:gpxx="http://www.garmin.com/xmlschemas/GpxExtensions/v3" xmlns:wptx1="http://www.garmin.com/xmlschemas/WaypointExtension/v1" xmlns:gpxtpx="http://www.garmin.com/xmlschemas/TrackPointExtension/v1" creator="GuideVTT.com" version="1.1" xmlns:xsi="http://www.w3.org/2001/XMLSchema-instance" xsi:schemaLocation="http://www.topografix.com/GPX/1/1 http://www.topografix.com/GPX/1/1/gpx.xsd http://www.garmin.com/xmlschemas/GpxExtensions/v3 http://www8.garmin.com/xmlschemas/GpxExtensionsv3.xsd http://www.garmin.com/xmlschemas/WaypointExtension/v1 http://www8.garmin.com/xmlschemas/WaypointExtensionv1.xsd http://www.garmin.com/xmlschemas/TrackPointExtension/v1 http://www.garmin.com/xmlschemas/TrackPointExtensionv1.xsd">
<metadata><link href="http://www.garmin.com"><text>Garmin International</text></link><time>2013-06-22T15:13:50Z</time></metadata>
<trk><name>rp2016_36.gpx</name><extensions><gpxx:TrackExtension><gpxx:DisplayColor>Cyan</gpxx:DisplayColor></gpxx:TrackExtension></extensions><trkseg>
<trkpt lat="46.48867" lon="6.72658"><ele>392</ele><time>2016-08-10T15:42:49Z</time></trkpt>
<trkpt lat="46.48866" lon="6.7267"><ele>390.4</ele><time>2016-08-10T15:42:51Z</time></trkpt>
<trkpt lat="46.48893" lon="6.72686"><ele>390.2</ele><time>2016-08-10T15:43:01Z</time></trkpt>
<trkpt lat="46.48898" lon="6.72682"><ele>389</ele><time>2016-08-10T15:43:04Z</time></trkpt>
<trkpt lat="46.489" lon="6.72683"><ele>388.6</ele><time>2016-08-10T15:43:05Z</time></trkpt>
<trkpt lat="46.48915" lon="6.72689"><ele>387.2</ele><time>2016-08-10T15:43:11Z</time></trkpt>
<trkpt lat="46.48925" lon="6.72692"><ele>387</ele><time>2016-08-10T15:43:15Z</time></trkpt>
<trkpt lat="46.48938" lon="6.72706"><ele>390</ele><time>2016-08-10T15:43:22Z</time></trkpt>
<trkpt lat="46.48939" lon="6.72709"><ele>390.4</ele><time>2016-08-10T15:43:23Z</time></trkpt>
<trkpt lat="46.48944" lon="6.72737"><ele>392.4</ele><time>2016-08-10T15:43:32Z</time></trkpt>
<trkpt lat="46.48948" lon="6.72763"><ele>393</ele><time>2016-08-10T15:43:40Z</time></trkpt>
<trkpt lat="46.48949" lon="6.72769"><ele>393.2</ele><time>2016-08-10T15:43:42Z</time></trkpt>
<trkpt lat="46.48956" lon="6.7281"><ele>395</ele><time>2016-08-10T15:43:55Z</time></trkpt>
<trkpt lat="46.48958" lon="6.72837"><ele>395.2</ele><time>2016-08-10T15:44:03Z</time></trkpt>
<trkpt lat="46.48963" lon="6.72865"><ele>396.2</ele><time>2016-08-10T15:44:11Z</time></trkpt>
<trkpt lat="46.4897" lon="6.72892"><ele>397.6</ele><time>2016-08-10T15:44:19Z</time></trkpt>
<trkpt lat="46.48982" lon="6.72915"><ele>399.8</ele><time>2016-08-10T15:44:27Z</time></trkpt>
<trkpt lat="46.48996" lon="6.72935"><ele>401</ele><time>2016-08-10T15:44:35Z</time></trkpt>
<trkpt lat="46.49006" lon="6.72945"><ele>402.2</ele><time>2016-08-10T15:44:40Z</time></trkpt>
<trkpt lat="46.49021" lon="6.72958"><ele>403.2</ele><time>2016-08-10T15:44:47Z</time></trkpt>
<trkpt lat="46.49035" lon="6.72969"><ele>404</ele><time>2016-08-10T15:44:53Z</time></trkpt>
<trkpt lat="46.49053" lon="6.72983"><ele>405</ele><time>2016-08-10T15:45:01Z</time></trkpt>
<trkpt lat="46.49069" lon="6.72995"><ele>406.4</ele><time>2016-08-10T15:45:08Z</time></trkpt>
<trkpt lat="46.49086" lon="6.73008"><ele>407.8</ele><time>2016-08-10T15:45:15Z</time></trkpt>
<trkpt lat="46.49102" lon="6.73022"><ele>409.2</ele><time>2016-08-10T15:45:22Z</time></trkpt>
<trkpt lat="46.49117" lon="6.73039"><ele>410.6</ele><time>2016-08-10T15:45:29Z</time></trkpt>
<trkpt lat="46.49128" lon="6.7306"><ele>412</ele><time>2016-08-10T15:45:36Z</time></trkpt>
<trkpt lat="46.4914" lon="6.731"><ele>413.2</ele><time>2016-08-10T15:45:47Z</time></trkpt>
<trkpt lat="46.49143" lon="6.73118"><ele>414</ele><time>2016-08-10T15:45:52Z</time></trkpt>
<trkpt lat="46.49145" lon="6.73128"><ele>414.6</ele><time>2016-08-10T15:45:55Z</time></trkpt>
<trkpt lat="46.49152" lon="6.73156"><ele>416.4</ele><time>2016-08-10T15:46:03Z</time></trkpt>
<trkpt lat="46.49161" lon="6.73179"><ele>417.8</ele><time>2016-08-10T15:46:10Z</time></trkpt>
<trkpt lat="46.49174" lon="6.73199"><ele>419</ele><time>2016-08-10T15:46:17Z</time></trkpt>
<trkpt lat="46.49189" lon="6.73217"><ele>420.4</ele><time>2016-08-10T15:46:24Z</time></trkpt>
<trkpt lat="46.49205" lon="6.73236"><ele>422</ele><time>2016-08-10T15:46:31Z</time></trkpt>
<trkpt lat="46.49218" lon="6.73256"><ele>423.4</ele><time>2016-08-10T15:46:38Z</time></trkpt>
<trkpt lat="46.49237" lon="6.7329"><ele>425.6</ele><time>2016-08-10T15:46:49Z</time></trkpt>
<trkpt lat="46.49248" lon="6.73313"><ele>426.6</ele><time>2016-08-10T15:46:56Z</time></trkpt>
<trkpt lat="46.4926" lon="6.73333"><ele>428.2</ele><time>2016-08-10T15:47:03Z</time></trkpt>
<trkpt lat="46.49275" lon="6.7335"><ele>429.4</ele><time>2016-08-10T15:47:10Z</time></trkpt>
<trkpt lat="46.4928" lon="6.73354"><ele>429.8</ele><time>2016-08-10T15:47:12Z</time></trkpt>
<trkpt lat="46.49298" lon="6.73365"><ele>431</ele><time>2016-08-10T15:47:19Z</time></trkpt>
<trkpt lat="46.49316" lon="6.73373"><ele>432</ele><time>2016-08-10T15:47:26Z</time></trkpt>
<trkpt lat="46.49335" lon="6.73381"><ele>433.2</ele><time>2016-08-10T15:47:33Z</time></trkpt>
<trkpt lat="46.49352" lon="6.73392"><ele>434.4</ele><time>2016-08-10T15:47:40Z</time></trkpt>
<trkpt lat="46.49358" lon="6.73406"><ele>435</ele><time>2016-08-10T15:47:44Z</time></trkpt>
<trkpt lat="46.49361" lon="6.73445"><ele>438.4</ele><time>2016-08-10T15:47:55Z</time></trkpt>
<trkpt lat="46.49348" lon="6.73468"><ele>441.6</ele><time>2016-08-10T15:48:03Z</time></trkpt>
<trkpt lat="46.49339" lon="6.73493"><ele>443.6</ele><time>2016-08-10T15:48:11Z</time></trkpt>
<trkpt lat="46.49338" lon="6.73498"><ele>444.2</ele><time>2016-08-10T15:48:15Z</time></trkpt>
<trkpt lat="46.49337" lon="6.735"><ele>444</ele><time>2016-08-10T15:48:31Z</time></trkpt>
<trkpt lat="46.49337" lon="6.73501"><ele>444</ele><time>2016-08-10T15:48:33Z</time></trkpt>
<trkpt lat="46.49337" lon="6.73531"><ele>444.6</ele><time>2016-08-10T15:48:43Z</time></trkpt>
<trkpt lat="46.49339" lon="6.7356"><ele>445.8</ele><time>2016-08-10T15:48:50Z</time></trkpt>
<trkpt lat="46.49338" lon="6.73586"><ele>447.2</ele><time>2016-08-10T15:48:56Z</time></trkpt>
<trkpt lat="46.49336" lon="6.73617"><ele>448.2</ele><time>2016-08-10T15:49:02Z</time></trkpt>
<trkpt lat="46.49331" lon="6.73648"><ele>447.8</ele><time>2016-08-10T15:49:07Z</time></trkpt>
<trkpt lat="46.49329" lon="6.73679"><ele>447</ele><time>2016-08-10T15:49:11Z</time></trkpt>
<trkpt lat="46.49327" lon="6.7371"><ele>446.8</ele><time>2016-08-10T15:49:15Z</time></trkpt>
<trkpt lat="46.49323" lon="6.7374"><ele>446.6</ele><time>2016-08-10T15:49:19Z</time></trkpt>
<trkpt lat="46.49314" lon="6.7377"><ele>446.2</ele><time>2016-08-10T15:49:23Z</time></trkpt>
<trkpt lat="46.49304" lon="6.73797"><ele>446.6</ele><time>2016-08-10T15:49:27Z</time></trkpt>
<trkpt lat="46.49295" lon="6.73824"><ele>445.8</ele><time>2016-08-10T15:49:31Z</time></trkpt>
<trkpt lat="46.49287" lon="6.73851"><ele>445.4</ele><time>2016-08-10T15:49:35Z</time></trkpt>
<trkpt lat="46.49279" lon="6.73878"><ele>445.6</ele><time>2016-08-10T15:49:39Z</time></trkpt>
<trkpt lat="46.49278" lon="6.73885"><ele>445.8</ele><time>2016-08-10T15:49:40Z</time></trkpt>
<trkpt lat="46.49277" lon="6.73917"><ele>445.4</ele><time>2016-08-10T15:49:45Z</time></trkpt>
<trkpt lat="46.49279" lon="6.73949"><ele>445.4</ele><time>2016-08-10T15:49:50Z</time></trkpt>
<trkpt lat="46.49281" lon="6.73975"><ele>446.2</ele><time>2016-08-10T15:49:54Z</time></trkpt>
<trkpt lat="46.49284" lon="6.74002"><ele>446.6</ele><time>2016-08-10T15:49:58Z</time></trkpt>
<trkpt lat="46.49285" lon="6.7403"><ele>447.6</ele><time>2016-08-10T15:50:02Z</time></trkpt>
<trkpt lat="46.49281" lon="6.74057"><ele>448.4</ele><time>2016-08-10T15:50:06Z</time></trkpt>
<trkpt lat="46.49275" lon="6.74087"><ele>449.4</ele><time>2016-08-10T15:50:11Z</time></trkpt>
<trkpt lat="46.49269" lon="6.74115"><ele>450.4</ele><time>2016-08-10T15:50:16Z</time></trkpt>
<trkpt lat="46.49268" lon="6.74121"><ele>450.4</ele><time>2016-08-10T15:50:17Z</time></trkpt>
<trkpt lat="46.49264" lon="6.74146"><ele>451.2</ele><time>2016-08-10T15:50:21Z</time></trkpt>
<trkpt lat="46.49258" lon="6.74176"><ele>452</ele><time>2016-08-10T15:50:26Z</time></trkpt>
<trkpt lat="46.49255" lon="6.74202"><ele>452.6</ele><time>2016-08-10T15:50:30Z</time></trkpt>
<trkpt lat="46.49255" lon="6.74208"><ele>452.8</ele><time>2016-08-10T15:50:31Z</time></trkpt>
<trkpt lat="46.49259" lon="6.7424"><ele>453.4</ele><time>2016-08-10T15:50:36Z</time></trkpt>
<trkpt lat="46.49262" lon="6.74258"><ele>454</ele><time>2016-08-10T15:50:39Z</time></trkpt>
<trkpt lat="46.49262" lon="6.74289"><ele>455</ele><time>2016-08-10T15:50:44Z</time></trkpt>
<trkpt lat="46.49255" lon="6.74318"><ele>456.2</ele><time>2016-08-10T15:50:49Z</time></trkpt>
<trkpt lat="46.4925" lon="6.74328"><ele>456.4</ele><time>2016-08-10T15:50:51Z</time></trkpt>
<trkpt lat="46.49239" lon="6.74351"><ele>457.2</ele><time>2016-08-10T15:50:56Z</time></trkpt>
<trkpt lat="46.49235" lon="6.7437"><ele>457.8</ele><time>2016-08-10T15:51:00Z</time></trkpt>
<trkpt lat="46.49234" lon="6.7438"><ele>457.8</ele><time>2016-08-10T15:51:02Z</time></trkpt>
<trkpt lat="46.49232" lon="6.74412"><ele>456.6</ele><time>2016-08-10T15:51:07Z</time></trkpt>
<trkpt lat="46.49233" lon="6.74419"><ele>456.4</ele><time>2016-08-10T15:51:08Z</time></trkpt>
<trkpt lat="46.49244" lon="6.74448"><ele>455</ele><time>2016-08-10T15:51:12Z</time></trkpt>
<trkpt lat="46.49251" lon="6.74462"><ele>454.6</ele><time>2016-08-10T15:51:14Z</time></trkpt>
<trkpt lat="46.49252" lon="6.7447"><ele>454.4</ele><time>2016-08-10T15:51:15Z</time></trkpt>
<trkpt lat="46.49254" lon="6.74477"><ele>454</ele><time>2016-08-10T15:51:16Z</time></trkpt>
<trkpt lat="46.49255" lon="6.74484"><ele>452.8</ele><time>2016-08-10T15:51:17Z</time></trkpt>
<trkpt lat="46.49249" lon="6.74506"><ele>452.6</ele><time>2016-08-10T15:51:21Z</time></trkpt>
<trkpt lat="46.4924" lon="6.74521"><ele>451.8</ele><time>2016-08-10T15:51:25Z</time></trkpt>
<trkpt lat="46.49237" lon="6.74525"><ele>451.6</ele><time>2016-08-10T15:51:26Z</time></trkpt>
<trkpt lat="46.49221" lon="6.74542"><ele>450.8</ele><time>2016-08-10T15:51:30Z</time></trkpt>
<trkpt lat="46.49203" lon="6.74564"><ele>450.6</ele><time>2016-08-10T15:51:34Z</time></trkpt>
<trkpt lat="46.49195" lon="6.74588"><ele>450.8</ele><time>2016-08-10T15:51:37Z</time></trkpt>
<trkpt lat="46.49191" lon="6.74605"><ele>451</ele><time>2016-08-10T15:51:39Z</time></trkpt>
<trkpt lat="46.49188" lon="6.74632"><ele>450.6</ele><time>2016-08-10T15:51:42Z</time></trkpt>
<trkpt lat="46.49184" lon="6.7466"><ele>451.6</ele><time>2016-08-10T15:51:45Z</time></trkpt>
<trkpt lat="46.49181" lon="6.74687"><ele>452</ele><time>2016-08-10T15:51:48Z</time></trkpt>
<trkpt lat="46.4918" lon="6.74695"><ele>451.8</ele><time>2016-08-10T15:51:49Z</time></trkpt>
<trkpt lat="46.49175" lon="6.74717"><ele>452.4</ele><time>2016-08-10T15:51:52Z</time></trkpt>
<trkpt lat="46.49164" lon="6.7474"><ele>452.6</ele><time>2016-08-10T15:51:58Z</time></trkpt>
<trkpt lat="46.49161" lon="6.74745"><ele>453.4</ele><time>2016-08-10T15:52:01Z</time></trkpt>
<trkpt lat="46.4916" lon="6.74748"><ele>453.6</ele><time>2016-08-10T15:52:04Z</time></trkpt>
<trkpt lat="46.4916" lon="6.74748"><ele>453.6</ele><time>2016-08-10T15:52:05Z</time></trkpt>
<trkpt lat="46.4916" lon="6.74751"><ele>453.8</ele><time>2016-08-10T15:52:20Z</time></trkpt>
<trkpt lat="46.4916" lon="6.74752"><ele>453.8</ele><time>2016-08-10T15:52:21Z</time></trkpt>
<trkpt lat="46.4916" lon="6.74752"><ele>453.8</ele><time>2016-08-10T15:52:23Z</time></trkpt>
<trkpt lat="46.4916" lon="6.74752"><ele>454</ele><time>2016-08-10T15:52:37Z</time></trkpt>
<trkpt lat="46.49153" lon="6.74771"><ele>454.2</ele><time>2016-08-10T15:52:54Z</time></trkpt>
<trkpt lat="46.49146" lon="6.74779"><ele>454.4</ele><time>2016-08-10T15:52:56Z</time></trkpt>
<trkpt lat="46.49143" lon="6.74784"><ele>454.4</ele><time>2016-08-10T15:52:57Z</time></trkpt>
<trkpt lat="46.49135" lon="6.74793"><ele>454.4</ele><time>2016-08-10T15:52:59Z</time></trkpt>
<trkpt lat="46.49128" lon="6.74802"><ele>454.2</ele><time>2016-08-10T15:53:01Z</time></trkpt>
<trkpt lat="46.49121" lon="6.74817"><ele>454.6</ele><time>2016-08-10T15:53:04Z</time></trkpt>
<trkpt lat="46.49104" lon="6.74838"><ele>454</ele><time>2016-08-10T15:53:09Z</time></trkpt>
<trkpt lat="46.49093" lon="6.74848"><ele>453.8</ele><time>2016-08-10T15:53:12Z</time></trkpt>
<trkpt lat="46.49087" lon="6.74853"><ele>453.8</ele><time>2016-08-10T15:53:14Z</time></trkpt>
<trkpt lat="46.49077" lon="6.74861"><ele>454</ele><time>2016-08-10T15:53:17Z</time></trkpt>
<trkpt lat="46.49056" lon="6.7487"><ele>454.8</ele><time>2016-08-10T15:53:22Z</time></trkpt>
<trkpt lat="46.49039" lon="6.74885"><ele>454.2</ele><time>2016-08-10T15:53:27Z</time></trkpt>
<trkpt lat="46.4903" lon="6.749"><ele>455.2</ele><time>2016-08-10T15:53:30Z</time></trkpt>
<trkpt lat="46.49028" lon="6.74905"><ele>455.2</ele><time>2016-08-10T15:53:31Z</time></trkpt>
<trkpt lat="46.4902" lon="6.74931"><ele>454.6</ele><time>2016-08-10T15:53:35Z</time></trkpt>
<trkpt lat="46.49014" lon="6.74959"><ele>455.8</ele><time>2016-08-10T15:53:39Z</time></trkpt>
<trkpt lat="46.4901" lon="6.74977"><ele>457.6</ele><time>2016-08-10T15:53:42Z</time></trkpt>
<trkpt lat="46.49001" lon="6.74999"><ele>459.6</ele><time>2016-08-10T15:53:47Z</time></trkpt>
<trkpt lat="46.48986" lon="6.75018"><ele>460.6</ele><time>2016-08-10T15:53:52Z</time></trkpt>
<trkpt lat="46.4897" lon="6.75037"><ele>461.4</ele><time>2016-08-10T15:53:57Z</time></trkpt>
<trkpt lat="46.48953" lon="6.75057"><ele>462.4</ele><time>2016-08-10T15:54:02Z</time></trkpt>
<trkpt lat="46.4895" lon="6.75061"><ele>462.6</ele><time>2016-08-10T15:54:03Z</time></trkpt>
<trkpt lat="46.48939" lon="6.75089"><ele>463.6</ele><time>2016-08-10T15:54:08Z</time></trkpt>
<trkpt lat="46.48938" lon="6.75114"><ele>464.2</ele><time>2016-08-10T15:54:12Z</time></trkpt>
<trkpt lat="46.48937" lon="6.7514"><ele>464.6</ele><time>2016-08-10T15:54:16Z</time></trkpt>
<trkpt lat="46.48933" lon="6.75166"><ele>465.6</ele><time>2016-08-10T15:54:20Z</time></trkpt>
<trkpt lat="46.48931" lon="6.75172"><ele>466</ele><time>2016-08-10T15:54:21Z</time></trkpt>
<trkpt lat="46.48918" lon="6.75196"><ele>467.4</ele><time>2016-08-10T15:54:26Z</time></trkpt>
<trkpt lat="46.48915" lon="6.75199"><ele>467.8</ele><time>2016-08-10T15:54:27Z</time></trkpt>
<trkpt lat="46.48899" lon="6.75213"><ele>468.8</ele><time>2016-08-10T15:54:32Z</time></trkpt>
<trkpt lat="46.48881" lon="6.75227"><ele>470.2</ele><time>2016-08-10T15:54:37Z</time></trkpt>
<trkpt lat="46.48865" lon="6.75243"><ele>471.2</ele><time>2016-08-10T15:54:42Z</time></trkpt>
<trkpt lat="46.48851" lon="6.75265"><ele>472.4</ele><time>2016-08-10T15:54:47Z</time></trkpt>
<trkpt lat="46.48838" lon="6.75288"><ele>473.4</ele><time>2016-08-10T15:54:52Z</time></trkpt>
<trkpt lat="46.48825" lon="6.75312"><ele>474.4</ele><time>2016-08-10T15:54:57Z</time></trkpt>
<trkpt lat="46.48813" lon="6.75337"><ele>475.4</ele><time>2016-08-10T15:55:02Z</time></trkpt>
<trkpt lat="46.48798" lon="6.75359"><ele>476.2</ele><time>2016-08-10T15:55:07Z</time></trkpt>
<trkpt lat="46.48787" lon="6.75386"><ele>477</ele><time>2016-08-10T15:55:12Z</time></trkpt>
<trkpt lat="46.48775" lon="6.75411"><ele>477.8</ele><time>2016-08-10T15:55:17Z</time></trkpt>
<trkpt lat="46.48761" lon="6.75433"><ele>478.8</ele><time>2016-08-10T15:55:22Z</time></trkpt>
<trkpt lat="46.48745" lon="6.75454"><ele>479.6</ele><time>2016-08-10T15:55:27Z</time></trkpt>
<trkpt lat="46.48728" lon="6.75474"><ele>480.6</ele><time>2016-08-10T15:55:32Z</time></trkpt>
<trkpt lat="46.48712" lon="6.75492"><ele>481.4</ele><time>2016-08-10T15:55:37Z</time></trkpt>
<trkpt lat="46.48696" lon="6.75511"><ele>482</ele><time>2016-08-10T15:55:42Z</time></trkpt>
<trkpt lat="46.4868" lon="6.75531"><ele>482.8</ele><time>2016-08-10T15:55:47Z</time></trkpt>
<trkpt lat="46.48665" lon="6.75552"><ele>483.8</ele><time>2016-08-10T15:55:52Z</time></trkpt>
<trkpt lat="46.48651" lon="6.75574"><ele>485</ele><time>2016-08-10T15:55:57Z</time></trkpt>
<trkpt lat="46.48638" lon="6.75596"><ele>486.2</ele><time>2016-08-10T15:56:02Z</time></trkpt>
<trkpt lat="46.48626" lon="6.75618"><ele>487.6</ele><time>2016-08-10T15:56:07Z</time></trkpt>
<trkpt lat="46.48616" lon="6.75635"><ele>488.6</ele><time>2016-08-10T15:56:11Z</time></trkpt>
<trkpt lat="46.486" lon="6.75664"><ele>490.4</ele><time>2016-08-10T15:56:18Z</time></trkpt>
<trkpt lat="46.48597" lon="6.7567"><ele>491</ele><time>2016-08-10T15:56:20Z</time></trkpt>
<trkpt lat="46.48585" lon="6.75693"><ele>492.6</ele><time>2016-08-10T15:56:27Z</time></trkpt>
<trkpt lat="46.48573" lon="6.75718"><ele>493.8</ele><time>2016-08-10T15:56:34Z</time></trkpt>
<trkpt lat="46.48559" lon="6.75741"><ele>494.6</ele><time>2016-08-10T15:56:40Z</time></trkpt>
<trkpt lat="46.48553" lon="6.75753"><ele>495.8</ele><time>2016-08-10T15:56:43Z</time></trkpt>
<trkpt lat="46.4854" lon="6.75773"><ele>496.8</ele><time>2016-08-10T15:56:49Z</time></trkpt>
<trkpt lat="46.48528" lon="6.75794"><ele>497.2</ele><time>2016-08-10T15:56:55Z</time></trkpt>
<trkpt lat="46.48515" lon="6.75814"><ele>497.6</ele><time>2016-08-10T15:57:01Z</time></trkpt>
<trkpt lat="46.48506" lon="6.75831"><ele>498.2</ele><time>2016-08-10T15:57:06Z</time></trkpt>
<trkpt lat="46.48493" lon="6.75853"><ele>499.6</ele><time>2016-08-10T15:57:12Z</time></trkpt>
<trkpt lat="46.4848" lon="6.75874"><ele>501.4</ele><time>2016-08-10T15:57:18Z</time></trkpt>
<trkpt lat="46.48466" lon="6.75893"><ele>502.6</ele><time>2016-08-10T15:57:24Z</time></trkpt>
<trkpt lat="46.48449" lon="6.75912"><ele>504.6</ele><time>2016-08-10T15:57:30Z</time></trkpt>
<trkpt lat="46.48436" lon="6.75926"><ele>505.6</ele><time>2016-08-10T15:57:35Z</time></trkpt>
<trkpt lat="46.48419" lon="6.75942"><ele>507.4</ele><time>2016-08-10T15:57:41Z</time></trkpt>
<trkpt lat="46.48403" lon="6.75961"><ele>508</ele><time>2016-08-10T15:57:47Z</time></trkpt>
<trkpt lat="46.48393" lon="6.75976"><ele>508.4</ele><time>2016-08-10T15:57:51Z</time></trkpt>
<trkpt lat="46.4838" lon="6.75998"><ele>509</ele><time>2016-08-10T15:57:56Z</time></trkpt>
<trkpt lat="46.48366" lon="6.76019"><ele>509.6</ele><time>2016-08-10T15:58:01Z</time></trkpt>
<trkpt lat="46.48351" lon="6.76039"><ele>510.8</ele><time>2016-08-10T15:58:06Z</time></trkpt>
<trkpt lat="46.48333" lon="6.76059"><ele>512.4</ele><time>2016-08-10T15:58:11Z</time></trkpt>
<trkpt lat="46.4832" lon="6.76078"><ele>513.6</ele><time>2016-08-10T15:58:15Z</time></trkpt>
<trkpt lat="46.48309" lon="6.76101"><ele>514.4</ele><time>2016-08-10T15:58:19Z</time></trkpt>
<trkpt lat="46.48297" lon="6.76121"><ele>515.6</ele><time>2016-08-10T15:58:23Z</time></trkpt>
<trkpt lat="46.48283" lon="6.76146"><ele>516.8</ele><time>2016-08-10T15:58:28Z</time></trkpt>
<trkpt lat="46.48268" lon="6.76171"><ele>518</ele><time>2016-08-10T15:58:33Z</time></trkpt>
<trkpt lat="46.48253" lon="6.76192"><ele>519</ele><time>2016-08-10T15:58:38Z</time></trkpt>
<trkpt lat="46.48239" lon="6.76214"><ele>519.8</ele><time>2016-08-10T15:58:43Z</time></trkpt>
<trkpt lat="46.48231" lon="6.76228"><ele>520.4</ele><time>2016-08-10T15:58:46Z</time></trkpt>
<trkpt lat="46.48219" lon="6.76253"><ele>521.8</ele><time>2016-08-10T15:58:51Z</time></trkpt>
<trkpt lat="46.48207" lon="6.76277"><ele>523.2</ele><time>2016-08-10T15:58:56Z</time></trkpt>
<trkpt lat="46.48198" lon="6.76299"><ele>523.6</ele><time>2016-08-10T15:59:01Z</time></trkpt>
<trkpt lat="46.48187" lon="6.76321"><ele>524.4</ele><time>2016-08-10T15:59:06Z</time></trkpt>
<trkpt lat="46.48177" lon="6.76344"><ele>525</ele><time>2016-08-10T15:59:11Z</time></trkpt>
<trkpt lat="46.48166" lon="6.76368"><ele>525.6</ele><time>2016-08-10T15:59:16Z</time></trkpt>
<trkpt lat="46.48153" lon="6.7639"><ele>526.8</ele><time>2016-08-10T15:59:21Z</time></trkpt>
<trkpt lat="46.4814" lon="6.76411"><ele>528</ele><time>2016-08-10T15:59:26Z</time></trkpt>
<trkpt lat="46.48133" lon="6.76437"><ele>529</ele><time>2016-08-10T15:59:31Z</time></trkpt>
<trkpt lat="46.48126" lon="6.76464"><ele>529.8</ele><time>2016-08-10T15:59:36Z</time></trkpt>
<trkpt lat="46.48117" lon="6.76489"><ele>530.6</ele><time>2016-08-10T15:59:41Z</time></trkpt>
<trkpt lat="46.481" lon="6.7654"><ele>532.4</ele><time>2016-08-10T15:59:51Z</time></trkpt>
<trkpt lat="46.48089" lon="6.76565"><ele>533.8</ele><time>2016-08-10T15:59:56Z</time></trkpt>
<trkpt lat="46.48076" lon="6.76586"><ele>535</ele><time>2016-08-10T16:00:01Z</time></trkpt>
<trkpt lat="46.48062" lon="6.76608"><ele>536.2</ele><time>2016-08-10T16:00:06Z</time></trkpt>
<trkpt lat="46.48056" lon="6.76636"><ele>537.2</ele><time>2016-08-10T16:00:11Z</time></trkpt>
<trkpt lat="46.48049" lon="6.76664"><ele>538.2</ele><time>2016-08-10T16:00:16Z</time></trkpt>
<trkpt lat="46.48041" lon="6.7669"><ele>539</ele><time>2016-08-10T16:00:21Z</time></trkpt>
<trkpt lat="46.48035" lon="6.76715"><ele>539.8</ele><time>2016-08-10T16:00:26Z</time></trkpt>
<trkpt lat="46.48029" lon="6.76757"><ele>540.6</ele><time>2016-08-10T16:00:34Z</time></trkpt>
<trkpt lat="46.48032" lon="6.76783"><ele>541.6</ele><time>2016-08-10T16:00:39Z</time></trkpt>
<trkpt lat="46.48042" lon="6.76806"><ele>542.8</ele><time>2016-08-10T16:00:44Z</time></trkpt>
<trkpt lat="46.4805" lon="6.7683"><ele>543.8</ele><time>2016-08-10T16:00:49Z</time></trkpt>
<trkpt lat="46.48053" lon="6.76856"><ele>545.4</ele><time>2016-08-10T16:00:54Z</time></trkpt>
<trkpt lat="46.48052" lon="6.76872"><ele>546.2</ele><time>2016-08-10T16:00:57Z</time></trkpt>
<trkpt lat="46.4805" lon="6.76887"><ele>547.2</ele><time>2016-08-10T16:01:00Z</time></trkpt>
<trkpt lat="46.48045" lon="6.76918"><ele>548.4</ele><time>2016-08-10T16:01:06Z</time></trkpt>
<trkpt lat="46.48045" lon="6.76944"><ele>548.6</ele><time>2016-08-10T16:01:11Z</time></trkpt>
<trkpt lat="46.48046" lon="6.76971"><ele>549</ele><time>2016-08-10T16:01:16Z</time></trkpt>
<trkpt lat="46.48048" lon="6.77"><ele>550</ele><time>2016-08-10T16:01:21Z</time></trkpt>
<trkpt lat="46.48046" lon="6.77027"><ele>551.4</ele><time>2016-08-10T16:01:26Z</time></trkpt>
<trkpt lat="46.48039" lon="6.77053"><ele>552.6</ele><time>2016-08-10T16:01:31Z</time></trkpt>
<trkpt lat="46.48033" lon="6.77078"><ele>553.4</ele><time>2016-08-10T16:01:36Z</time></trkpt>
<trkpt lat="46.4803" lon="6.77105"><ele>554</ele><time>2016-08-10T16:01:41Z</time></trkpt>
<trkpt lat="46.48028" lon="6.77134"><ele>555</ele><time>2016-08-10T16:01:46Z</time></trkpt>
<trkpt lat="46.48026" lon="6.77163"><ele>555.8</ele><time>2016-08-10T16:01:51Z</time></trkpt>
<trkpt lat="46.48024" lon="6.77192"><ele>557.2</ele><time>2016-08-10T16:01:56Z</time></trkpt>
<trkpt lat="46.4802" lon="6.77218"><ele>558.6</ele><time>2016-08-10T16:02:01Z</time></trkpt>
<trkpt lat="46.48017" lon="6.77244"><ele>559.8</ele><time>2016-08-10T16:02:07Z</time></trkpt>
<trkpt lat="46.48013" lon="6.77272"><ele>561</ele><time>2016-08-10T16:02:14Z</time></trkpt>
<trkpt lat="46.48008" lon="6.77301"><ele>562.4</ele><time>2016-08-10T16:02:21Z</time></trkpt>
<trkpt lat="46.48011" lon="6.77346"><ele>563.8</ele><time>2016-08-10T16:02:31Z</time></trkpt>
<trkpt lat="46.48018" lon="6.77371"><ele>564.2</ele><time>2016-08-10T16:02:36Z</time></trkpt>
<trkpt lat="46.48031" lon="6.7739"><ele>564.8</ele><time>2016-08-10T16:02:41Z</time></trkpt>
<trkpt lat="46.48052" lon="6.77394"><ele>565</ele><time>2016-08-10T16:02:46Z</time></trkpt>
<trkpt lat="46.48069" lon="6.77383"><ele>565.8</ele><time>2016-08-10T16:02:50Z</time></trkpt>
<trkpt lat="46.48088" lon="6.77372"><ele>566.2</ele><time>2016-08-10T16:02:54Z</time></trkpt>
<trkpt lat="46.48109" lon="6.77374"><ele>566.6</ele><time>2016-08-10T16:02:58Z</time></trkpt>
<trkpt lat="46.48126" lon="6.77393"><ele>566.4</ele><time>2016-08-10T16:03:02Z</time></trkpt>
<trkpt lat="46.48139" lon="6.77417"><ele>566.8</ele><time>2016-08-10T16:03:06Z</time></trkpt>
<trkpt lat="46.48151" lon="6.77441"><ele>567.4</ele><time>2016-08-10T16:03:10Z</time></trkpt>
<trkpt lat="46.48165" lon="6.77462"><ele>567.6</ele><time>2016-08-10T16:03:14Z</time></trkpt>
<trkpt lat="46.48182" lon="6.77481"><ele>567</ele><time>2016-08-10T16:03:18Z</time></trkpt>
<trkpt lat="46.48195" lon="6.77503"><ele>567.8</ele><time>2016-08-10T16:03:22Z</time></trkpt>
<trkpt lat="46.48187" lon="6.77532"><ele>564.8</ele><time>2016-08-10T16:03:27Z</time></trkpt>
<trkpt lat="46.48173" lon="6.77554"><ele>563.4</ele><time>2016-08-10T16:03:31Z</time></trkpt>
<trkpt lat="46.48167" lon="6.77559"><ele>563</ele><time>2016-08-10T16:03:33Z</time></trkpt>
<trkpt lat="46.48162" lon="6.77563"><ele>563</ele><time>2016-08-10T16:03:36Z</time></trkpt>
<trkpt lat="46.48154" lon="6.7757"><ele>562.2</ele><time>2016-08-10T16:03:40Z</time></trkpt>
<trkpt lat="46.4815" lon="6.77575"><ele>562</ele><time>2016-08-10T16:03:42Z</time></trkpt>
<trkpt lat="46.48137" lon="6.77593"><ele>560</ele><time>2016-08-10T16:03:48Z</time></trkpt>
<trkpt lat="46.48127" lon="6.77611"><ele>559.2</ele><time>2016-08-10T16:03:51Z</time></trkpt>
<trkpt lat="46.48118" lon="6.77634"><ele>557.8</ele><time>2016-08-10T16:03:54Z</time></trkpt>
<trkpt lat="46.48114" lon="6.77651"><ele>557</ele><time>2016-08-10T16:03:56Z</time></trkpt>
<trkpt lat="46.48119" lon="6.77683"><ele>556.2</ele><time>2016-08-10T16:04:00Z</time></trkpt>
<trkpt lat="46.48132" lon="6.77704"><ele>557</ele><time>2016-08-10T16:04:04Z</time></trkpt>
<trkpt lat="46.48142" lon="6.77718"><ele>558</ele><time>2016-08-10T16:04:08Z</time></trkpt>
<trkpt lat="46.48149" lon="6.77724"><ele>559.2</ele><time>2016-08-10T16:04:12Z</time></trkpt>
<trkpt lat="46.48154" lon="6.77748"><ele>563</ele><time>2016-08-10T16:04:18Z</time></trkpt>
<trkpt lat="46.48155" lon="6.77763"><ele>563.6</ele><time>2016-08-10T16:04:20Z</time></trkpt>
<trkpt lat="46.4816" lon="6.77789"><ele>564.2</ele><time>2016-08-10T16:04:23Z</time></trkpt>
<trkpt lat="46.48168" lon="6.7782"><ele>565.8</ele><time>2016-08-10T16:04:26Z</time></trkpt>
<trkpt lat="46.4817" lon="6.77832"><ele>566.2</ele><time>2016-08-10T16:04:27Z</time></trkpt>
<trkpt lat="46.48175" lon="6.77859"><ele>566.8</ele><time>2016-08-10T16:04:29Z</time></trkpt>
<trkpt lat="46.48178" lon="6.77888"><ele>565.6</ele><time>2016-08-10T16:04:31Z</time></trkpt>
<trkpt lat="46.48181" lon="6.77917"><ele>565</ele><time>2016-08-10T16:04:33Z</time></trkpt>
<trkpt lat="46.48182" lon="6.77931"><ele>565</ele><time>2016-08-10T16:04:34Z</time></trkpt>
<trkpt lat="46.48175" lon="6.77959"><ele>563.4</ele><time>2016-08-10T16:04:36Z</time></trkpt>
<trkpt lat="46.48171" lon="6.77973"><ele>562.8</ele><time>2016-08-10T16:04:37Z</time></trkpt>
<trkpt lat="46.48163" lon="6.77984"><ele>562.2</ele><time>2016-08-10T16:04:38Z</time></trkpt>
<trkpt lat="46.48145" lon="6.78003"><ele>560.8</ele><time>2016-08-10T16:04:40Z</time></trkpt>
<trkpt lat="46.48128" lon="6.78025"><ele>558.4</ele><time>2016-08-10T16:04:42Z</time></trkpt>
<trkpt lat="46.48112" lon="6.78046"><ele>556.8</ele><time>2016-08-10T16:04:44Z</time></trkpt>
<trkpt lat="46.48094" lon="6.78065"><ele>555.6</ele><time>2016-08-10T16:04:46Z</time></trkpt>
<trkpt lat="46.48077" lon="6.78081"><ele>554</ele><time>2016-08-10T16:04:48Z</time></trkpt>
<trkpt lat="46.48061" lon="6.78097"><ele>552.4</ele><time>2016-08-10T16:04:50Z</time></trkpt>
<trkpt lat="46.48054" lon="6.78132"><ele>550.8</ele><time>2016-08-10T16:04:53Z</time></trkpt>
<trkpt lat="46.48052" lon="6.78158"><ele>549</ele><time>2016-08-10T16:04:55Z</time></trkpt>
<trkpt lat="46.4804" lon="6.78181"><ele>547</ele><time>2016-08-10T16:04:57Z</time></trkpt>
<trkpt lat="46.48033" lon="6.78191"><ele>545.8</ele><time>2016-08-10T16:04:58Z</time></trkpt>
<trkpt lat="46.4802" lon="6.78212"><ele>543.6</ele><time>2016-08-10T16:05:00Z</time></trkpt>
<trkpt lat="46.48012" lon="6.78238"><ele>541.8</ele><time>2016-08-10T16:05:02Z</time></trkpt>
<trkpt lat="46.48003" lon="6.78265"><ele>540.4</ele><time>2016-08-10T16:05:04Z</time></trkpt>
<trkpt lat="46.47989" lon="6.78288"><ele>539.2</ele><time>2016-08-10T16:05:06Z</time></trkpt>
<trkpt lat="46.47983" lon="6.78299"><ele>538.6</ele><time>2016-08-10T16:05:07Z</time></trkpt>
<trkpt lat="46.47974" lon="6.78322"><ele>537.4</ele><time>2016-08-10T16:05:09Z</time></trkpt>
<trkpt lat="46.47968" lon="6.78347"><ele>536.2</ele><time>2016-08-10T16:05:11Z</time></trkpt>
<trkpt lat="46.47965" lon="6.78374"><ele>534.2</ele><time>2016-08-10T16:05:13Z</time></trkpt>
<trkpt lat="46.47964" lon="6.78388"><ele>533.2</ele><time>2016-08-10T16:05:14Z</time></trkpt>
<trkpt lat="46.47962" lon="6.78418"><ele>532</ele><time>2016-08-10T16:05:16Z</time></trkpt>
<trkpt lat="46.47957" lon="6.78449"><ele>530.4</ele><time>2016-08-10T16:05:18Z</time></trkpt>
<trkpt lat="46.47952" lon="6.7848"><ele>529</ele><time>2016-08-10T16:05:20Z</time></trkpt>
<trkpt lat="46.47945" lon="6.78514"><ele>527.2</ele><time>2016-08-10T16:05:22Z</time></trkpt>
<trkpt lat="46.47937" lon="6.78547"><ele>525.4</ele><time>2016-08-10T16:05:24Z</time></trkpt>
<trkpt lat="46.47928" lon="6.7858"><ele>523.4</ele><time>2016-08-10T16:05:26Z</time></trkpt>
<trkpt lat="46.47919" lon="6.78612"><ele>522</ele><time>2016-08-10T16:05:28Z</time></trkpt>
<trkpt lat="46.47909" lon="6.78643"><ele>520.8</ele><time>2016-08-10T16:05:30Z</time></trkpt>
<trkpt lat="46.47897" lon="6.78672"><ele>520</ele><time>2016-08-10T16:05:32Z</time></trkpt>
<trkpt lat="46.47885" lon="6.78701"><ele>519.4</ele><time>2016-08-10T16:05:34Z</time></trkpt>
<trkpt lat="46.47872" lon="6.78728"><ele>519.2</ele><time>2016-08-10T16:05:36Z</time></trkpt>
<trkpt lat="46.47861" lon="6.78754"><ele>518.8</ele><time>2016-08-10T16:05:38Z</time></trkpt>
<trkpt lat="46.47851" lon="6.78779"><ele>518.6</ele><time>2016-08-10T16:05:40Z</time></trkpt>
<trkpt lat="46.4784" lon="6.78802"><ele>518.6</ele><time>2016-08-10T16:05:42Z</time></trkpt>
<trkpt lat="46.47827" lon="6.78834"><ele>518.8</ele><time>2016-08-10T16:05:45Z</time></trkpt>
<trkpt lat="46.47816" lon="6.78865"><ele>518.2</ele><time>2016-08-10T16:05:48Z</time></trkpt>
<trkpt lat="46.47807" lon="6.78898"><ele>517.8</ele><time>2016-08-10T16:05:51Z</time></trkpt>
<trkpt lat="46.47805" lon="6.7891"><ele>517.4</ele><time>2016-08-10T16:05:52Z</time></trkpt>
<trkpt lat="46.47801" lon="6.78941"><ele>521</ele><time>2016-08-10T16:05:55Z</time></trkpt>
<trkpt lat="46.47798" lon="6.78967"><ele>521</ele><time>2016-08-10T16:05:58Z</time></trkpt>
<trkpt lat="46.47794" lon="6.78993"><ele>521</ele><time>2016-08-10T16:06:01Z</time></trkpt>
<trkpt lat="46.47791" lon="6.79009"><ele>520.8</ele><time>2016-08-10T16:06:03Z</time></trkpt>
<trkpt lat="46.47797" lon="6.79037"><ele>520.6</ele><time>2016-08-10T16:06:07Z</time></trkpt>
<trkpt lat="46.47798" lon="6.79047"><ele>520.8</ele><time>2016-08-10T16:06:09Z</time></trkpt>
<trkpt lat="46.47797" lon="6.7905"><ele>520.8</ele><time>2016-08-10T16:06:10Z</time></trkpt>
<trkpt lat="46.47792" lon="6.79077"><ele>522.4</ele><time>2016-08-10T16:06:16Z</time></trkpt>
<trkpt lat="46.47789" lon="6.79088"><ele>523.4</ele><time>2016-08-10T16:06:18Z</time></trkpt>
<trkpt lat="46.47788" lon="6.79093"><ele>524</ele><time>2016-08-10T16:06:19Z</time></trkpt>
<trkpt lat="46.47787" lon="6.79097"><ele>524.6</ele><time>2016-08-10T16:06:20Z</time></trkpt>
<trkpt lat="46.47783" lon="6.79113"><ele>525.8</ele><time>2016-08-10T16:06:24Z</time></trkpt>
<trkpt lat="46.4778" lon="6.79134"><ele>526.8</ele><time>2016-08-10T16:06:28Z</time></trkpt>
<trkpt lat="46.47776" lon="6.79156"><ele>527</ele><time>2016-08-10T16:06:32Z</time></trkpt>
<trkpt lat="46.47774" lon="6.79162"><ele>527</ele><time>2016-08-10T16:06:33Z</time></trkpt>
<trkpt lat="46.47772" lon="6.79167"><ele>527.4</ele><time>2016-08-10T16:06:34Z</time></trkpt>
<trkpt lat="46.4777" lon="6.79172"><ele>526.8</ele><time>2016-08-10T16:06:35Z</time></trkpt>
<trkpt lat="46.47767" lon="6.79176"><ele>526.8</ele><time>2016-08-10T16:06:36Z</time></trkpt>
<trkpt lat="46.47754" lon="6.79196"><ele>526.8</ele><time>2016-08-10T16:06:41Z</time></trkpt>
<trkpt lat="46.47735" lon="6.79238"><ele>527.2</ele><time>2016-08-10T16:06:51Z</time></trkpt>
<trkpt lat="46.47731" lon="6.79252"><ele>527.4</ele><time>2016-08-10T16:06:54Z</time></trkpt>
<trkpt lat="46.47729" lon="6.7928"><ele>528.4</ele><time>2016-08-10T16:07:00Z</time></trkpt>
<trkpt lat="46.47725" lon="6.79308"><ele>530.2</ele><time>2016-08-10T16:07:08Z</time></trkpt>
<trkpt lat="46.47722" lon="6.79324"><ele>531.6</ele><time>2016-08-10T16:07:14Z</time></trkpt>
<trkpt lat="46.4772" lon="6.79333"><ele>532.6</ele><time>2016-08-10T16:07:18Z</time></trkpt>
<trkpt lat="46.47719" lon="6.79337"><ele>533</ele><time>2016-08-10T16:07:20Z</time></trkpt>
<trkpt lat="46.47718" lon="6.79342"><ele>533.8</ele><time>2016-08-10T16:07:23Z</time></trkpt>
<trkpt lat="46.47717" lon="6.79346"><ele>534.2</ele><time>2016-08-10T16:07:25Z</time></trkpt>
<trkpt lat="46.47714" lon="6.79359"><ele>535.4</ele><time>2016-08-10T16:07:32Z</time></trkpt>
<trkpt lat="46.47712" lon="6.79364"><ele>536</ele><time>2016-08-10T16:07:35Z</time></trkpt>
<trkpt lat="46.4771" lon="6.7937"><ele>536.8</ele><time>2016-08-10T16:07:38Z</time></trkpt>
<trkpt lat="46.47707" lon="6.79377"><ele>537.4</ele><time>2016-08-10T16:07:42Z</time></trkpt>
<trkpt lat="46.477" lon="6.79392"><ele>539.2</ele><time>2016-08-10T16:07:51Z</time></trkpt>
<trkpt lat="46.47689" lon="6.79414"><ele>542</ele><time>2016-08-10T16:08:03Z</time></trkpt>
<trkpt lat="46.47678" lon="6.79437"><ele>544.4</ele><time>2016-08-10T16:08:16Z</time></trkpt>
<trkpt lat="46.4768" lon="6.79471"><ele>546.4</ele><time>2016-08-10T16:08:35Z</time></trkpt>
<trkpt lat="46.47681" lon="6.7948"><ele>546.8</ele><time>2016-08-10T16:08:39Z</time></trkpt>
<trkpt lat="46.4768" lon="6.79496"><ele>547.6</ele><time>2016-08-10T16:08:46Z</time></trkpt>
<trkpt lat="46.4767" lon="6.79514"><ele>548</ele><time>2016-08-10T16:08:53Z</time></trkpt>
<trkpt lat="46.4766" lon="6.79538"><ele>549</ele><time>2016-08-10T16:09:00Z</time></trkpt>
<trkpt lat="46.47657" lon="6.79549"><ele>548.2</ele><time>2016-08-10T16:09:03Z</time></trkpt>
<trkpt lat="46.4765" lon="6.79576"><ele>550.2</ele><time>2016-08-10T16:09:11Z</time></trkpt>
<trkpt lat="46.47648" lon="6.79593"><ele>550</ele><time>2016-08-10T16:09:17Z</time></trkpt>
<trkpt lat="46.47644" lon="6.79607"><ele>550.4</ele><time>2016-08-10T16:09:22Z</time></trkpt>
<trkpt lat="46.47635" lon="6.79637"><ele>551.2</ele><time>2016-08-10T16:09:32Z</time></trkpt>
<trkpt lat="46.47625" lon="6.7966"><ele>549.8</ele><time>2016-08-10T16:09:38Z</time></trkpt>
<trkpt lat="46.4762" lon="6.79673"><ele>549</ele><time>2016-08-10T16:09:40Z</time></trkpt>
<trkpt lat="46.47618" lon="6.79681"><ele>548.6</ele><time>2016-08-10T16:09:41Z</time></trkpt>
<trkpt lat="46.47617" lon="6.79709"><ele>547.2</ele><time>2016-08-10T16:09:44Z</time></trkpt>
<trkpt lat="46.47615" lon="6.79731"><ele>545.8</ele><time>2016-08-10T16:09:46Z</time></trkpt>
<trkpt lat="46.47602" lon="6.79762"><ele>543.6</ele><time>2016-08-10T16:09:49Z</time></trkpt>
<trkpt lat="46.47596" lon="6.7977"><ele>543.2</ele><time>2016-08-10T16:09:50Z</time></trkpt>
<trkpt lat="46.47591" lon="6.79777"><ele>542.8</ele><time>2016-08-10T16:09:51Z</time></trkpt>
<trkpt lat="46.47585" lon="6.79794"><ele>542.8</ele><time>2016-08-10T16:09:53Z</time></trkpt>
<trkpt lat="46.4758" lon="6.7981"><ele>543</ele><time>2016-08-10T16:09:55Z</time></trkpt>
<trkpt lat="46.47575" lon="6.7984"><ele>543.6</ele><time>2016-08-10T16:09:59Z</time></trkpt>
<trkpt lat="46.47575" lon="6.79866"><ele>544</ele><time>2016-08-10T16:10:03Z</time></trkpt>
<trkpt lat="46.47582" lon="6.7989"><ele>543.6</ele><time>2016-08-10T16:10:07Z</time></trkpt>
<trkpt lat="46.47593" lon="6.79903"><ele>543.8</ele><time>2016-08-10T16:10:10Z</time></trkpt>
<trkpt lat="46.47606" lon="6.79923"><ele>544.6</ele><time>2016-08-10T16:10:14Z</time></trkpt>
<trkpt lat="46.47606" lon="6.79939"><ele>546</ele><time>2016-08-10T16:10:17Z</time></trkpt>
<trkpt lat="46.47603" lon="6.79946"><ele>547</ele><time>2016-08-10T16:10:19Z</time></trkpt>
<trkpt lat="46.476" lon="6.79951"><ele>547.6</ele><time>2016-08-10T16:10:21Z</time></trkpt>
<trkpt lat="46.47589" lon="6.79969"><ele>549.2</ele><time>2016-08-10T16:10:29Z</time></trkpt>
<trkpt lat="46.47585" lon="6.79991"><ele>549.8</ele><time>2016-08-10T16:10:35Z</time></trkpt>
<trkpt lat="46.47584" lon="6.8"><ele>550.2</ele><time>2016-08-10T16:10:37Z</time></trkpt>
<trkpt lat="46.47584" lon="6.80009"><ele>549.8</ele><time>2016-08-10T16:10:39Z</time></trkpt>
<trkpt lat="46.47582" lon="6.80018"><ele>549.8</ele><time>2016-08-10T16:10:41Z</time></trkpt>
<trkpt lat="46.4758" lon="6.80032"><ele>549.6</ele><time>2016-08-10T16:10:44Z</time></trkpt>
<trkpt lat="46.47576" lon="6.80059"><ele>549.8</ele><time>2016-08-10T16:10:49Z</time></trkpt>
<trkpt lat="46.47571" lon="6.80087"><ele>549.8</ele><time>2016-08-10T16:10:54Z</time></trkpt>
<trkpt lat="46.47563" lon="6.80112"><ele>548.8</ele><time>2016-08-10T16:10:58Z</time></trkpt>
<trkpt lat="46.47553" lon="6.80138"><ele>546.2</ele><time>2016-08-10T16:11:01Z</time></trkpt>
<trkpt lat="46.47545" lon="6.80162"><ele>543.6</ele><time>2016-08-10T16:11:03Z</time></trkpt>
<trkpt lat="46.47538" lon="6.80188"><ele>537.6</ele><time>2016-08-10T16:11:05Z</time></trkpt>
<trkpt lat="46.4753" lon="6.80218"><ele>534.8</ele><time>2016-08-10T16:11:07Z</time></trkpt>
<trkpt lat="46.47522" lon="6.8025"><ele>532.8</ele><time>2016-08-10T16:11:09Z</time></trkpt>
<trkpt lat="46.47516" lon="6.80283"><ele>531.2</ele><time>2016-08-10T16:11:11Z</time></trkpt>
<trkpt lat="46.47514" lon="6.80317"><ele>530</ele><time>2016-08-10T16:11:13Z</time></trkpt>
<trkpt lat="46.47513" lon="6.80334"><ele>529.6</ele><time>2016-08-10T16:11:14Z</time></trkpt>
<trkpt lat="46.47512" lon="6.80367"><ele>528.8</ele><time>2016-08-10T16:11:16Z</time></trkpt>
<trkpt lat="46.47507" lon="6.80399"><ele>528.4</ele><time>2016-08-10T16:11:18Z</time></trkpt>
<trkpt lat="46.47501" lon="6.80427"><ele>528.4</ele><time>2016-08-10T16:11:20Z</time></trkpt>
<trkpt lat="46.47495" lon="6.80453"><ele>528.6</ele><time>2016-08-10T16:11:22Z</time></trkpt>
<trkpt lat="46.47487" lon="6.80488"><ele>528.8</ele><time>2016-08-10T16:11:25Z</time></trkpt>
<trkpt lat="46.47484" lon="6.80498"><ele>528.8</ele><time>2016-08-10T16:11:26Z</time></trkpt>
<trkpt lat="46.47481" lon="6.80508"><ele>528.8</ele><time>2016-08-10T16:11:27Z</time></trkpt>
<trkpt lat="46.47479" lon="6.80519"><ele>528.4</ele><time>2016-08-10T16:11:28Z</time></trkpt>
<trkpt lat="46.47477" lon="6.80529"><ele>527.6</ele><time>2016-08-10T16:11:29Z</time></trkpt>
<trkpt lat="46.47469" lon="6.80565"><ele>523.4</ele><time>2016-08-10T16:11:32Z</time></trkpt>
<trkpt lat="46.47464" lon="6.80578"><ele>522</ele><time>2016-08-10T16:11:33Z</time></trkpt>
<trkpt lat="46.47453" lon="6.80604"><ele>520</ele><time>2016-08-10T16:11:35Z</time></trkpt>
<trkpt lat="46.4744" lon="6.80628"><ele>518</ele><time>2016-08-10T16:11:37Z</time></trkpt>
<trkpt lat="46.47428" lon="6.80651"><ele>516.4</ele><time>2016-08-10T16:11:39Z</time></trkpt>
<trkpt lat="46.47418" lon="6.80671"><ele>515.2</ele><time>2016-08-10T16:11:41Z</time></trkpt>
<trkpt lat="46.47402" lon="6.80692"><ele>512.8</ele><time>2016-08-10T16:11:44Z</time></trkpt>
<trkpt lat="46.47393" lon="6.80716"><ele>510.6</ele><time>2016-08-10T16:11:48Z</time></trkpt>
<trkpt lat="46.47392" lon="6.80722"><ele>511</ele><time>2016-08-10T16:11:49Z</time></trkpt>
<trkpt lat="46.47386" lon="6.80729"><ele>510.6</ele><time>2016-08-10T16:11:53Z</time></trkpt>
<trkpt lat="46.4738" lon="6.80696"><ele>507.6</ele><time>2016-08-10T16:11:58Z</time></trkpt>
<trkpt lat="46.47386" lon="6.80667"><ele>505.2</ele><time>2016-08-10T16:12:01Z</time></trkpt>
<trkpt lat="46.47391" lon="6.80644"><ele>503.2</ele><time>2016-08-10T16:12:03Z</time></trkpt>
<trkpt lat="46.47393" lon="6.8061"><ele>500.2</ele><time>2016-08-10T16:12:06Z</time></trkpt>
<trkpt lat="46.47392" lon="6.80591"><ele>498.6</ele><time>2016-08-10T16:12:08Z</time></trkpt>
<trkpt lat="46.4738" lon="6.80571"><ele>495.4</ele><time>2016-08-10T16:12:11Z</time></trkpt>
<trkpt lat="46.47363" lon="6.80563"><ele>491.4</ele><time>2016-08-10T16:12:14Z</time></trkpt>
<trkpt lat="46.47355" lon="6.80554"><ele>489</ele><time>2016-08-10T16:12:16Z</time></trkpt>
<trkpt lat="46.47351" lon="6.80521"><ele>484.6</ele><time>2016-08-10T16:12:20Z</time></trkpt>
<trkpt lat="46.47358" lon="6.80487"><ele>481.6</ele><time>2016-08-10T16:12:23Z</time></trkpt>
<trkpt lat="46.47365" lon="6.80462"><ele>479.6</ele><time>2016-08-10T16:12:25Z</time></trkpt>
<trkpt lat="46.47374" lon="6.80431"><ele>476.8</ele><time>2016-08-10T16:12:28Z</time></trkpt>
<trkpt lat="46.47375" lon="6.80422"><ele>476</ele><time>2016-08-10T16:12:29Z</time></trkpt>
<trkpt lat="46.47377" lon="6.80395"><ele>474</ele><time>2016-08-10T16:12:32Z</time></trkpt>
<trkpt lat="46.4738" lon="6.80375"><ele>472.6</ele><time>2016-08-10T16:12:34Z</time></trkpt>
<trkpt lat="46.47386" lon="6.80352"><ele>470.6</ele><time>2016-08-10T16:12:36Z</time></trkpt>
<trkpt lat="46.47389" lon="6.80339"><ele>469.4</ele><time>2016-08-10T16:12:37Z</time></trkpt>
<trkpt lat="46.47391" lon="6.80311"><ele>468.2</ele><time>2016-08-10T16:12:39Z</time></trkpt>
<trkpt lat="46.4739" lon="6.80284"><ele>466.6</ele><time>2016-08-10T16:12:41Z</time></trkpt>
<trkpt lat="46.47388" lon="6.80271"><ele>466</ele><time>2016-08-10T16:12:42Z</time></trkpt>
<trkpt lat="46.47386" lon="6.80247"><ele>464.8</ele><time>2016-08-10T16:12:44Z</time></trkpt>
<trkpt lat="46.47388" lon="6.8021"><ele>464.4</ele><time>2016-08-10T16:12:47Z</time></trkpt>
<trkpt lat="46.47391" lon="6.80176"><ele>464.8</ele><time>2016-08-10T16:12:50Z</time></trkpt>
<trkpt lat="46.47392" lon="6.80165"><ele>464.8</ele><time>2016-08-10T16:12:51Z</time></trkpt>
<trkpt lat="46.4739" lon="6.80134"><ele>464.4</ele><time>2016-08-10T16:12:54Z</time></trkpt>
<trkpt lat="46.47391" lon="6.80103"><ele>464</ele><time>2016-08-10T16:12:57Z</time></trkpt>
<trkpt lat="46.47395" lon="6.80074"><ele>463.6</ele><time>2016-08-10T16:13:00Z</time></trkpt>
<trkpt lat="46.47399" lon="6.80046"><ele>463.8</ele><time>2016-08-10T16:13:03Z</time></trkpt>
<trkpt lat="46.47403" lon="6.80027"><ele>463.2</ele><time>2016-08-10T16:13:05Z</time></trkpt>
<trkpt lat="46.47415" lon="6.80002"><ele>461.6</ele><time>2016-08-10T16:13:09Z</time></trkpt>
<trkpt lat="46.47419" lon="6.79995"><ele>461.2</ele><time>2016-08-10T16:13:11Z</time></trkpt>
<trkpt lat="46.4742" lon="6.79992"><ele>462</ele><time>2016-08-10T16:13:12Z</time></trkpt>
<trkpt lat="46.47423" lon="6.79985"><ele>462.2</ele><time>2016-08-10T16:13:15Z</time></trkpt>
<trkpt lat="46.4742" lon="6.79973"><ele>458.4</ele><time>2016-08-10T16:13:19Z</time></trkpt>
<trkpt lat="46.47415" lon="6.79947"><ele>451.8</ele><time>2016-08-10T16:13:23Z</time></trkpt>
<trkpt lat="46.47413" lon="6.79939"><ele>450</ele><time>2016-08-10T16:13:24Z</time></trkpt>
<trkpt lat="46.47412" lon="6.79931"><ele>448.2</ele><time>2016-08-10T16:13:25Z</time></trkpt>
<trkpt lat="46.4741" lon="6.79923"><ele>446.6</ele><time>2016-08-10T16:13:26Z</time></trkpt>
<trkpt lat="46.47409" lon="6.79915"><ele>445</ele><time>2016-08-10T16:13:27Z</time></trkpt>
<trkpt lat="46.47411" lon="6.79885"><ele>445.2</ele><time>2016-08-10T16:13:31Z</time></trkpt>
<trkpt lat="46.47406" lon="6.79876"><ele>445.4</ele><time>2016-08-10T16:13:35Z</time></trkpt>
<trkpt lat="46.47404" lon="6.79873"><ele>445.2</ele><time>2016-08-10T16:13:36Z</time></trkpt>
<trkpt lat="46.47392" lon="6.79857"><ele>443.6</ele><time>2016-08-10T16:13:40Z</time></trkpt>
<trkpt lat="46.47383" lon="6.79847"><ele>440.6</ele><time>2016-08-10T16:13:43Z</time></trkpt>
<trkpt lat="46.47378" lon="6.79832"><ele>439.2</ele><time>2016-08-10T16:13:46Z</time></trkpt>
<trkpt lat="46.47378" lon="6.7981"><ele>438.4</ele><time>2016-08-10T16:13:49Z</time></trkpt>
<trkpt lat="46.47381" lon="6.7978"><ele>438.4</ele><time>2016-08-10T16:13:53Z</time></trkpt>
<trkpt lat="46.47384" lon="6.7975"><ele>438.8</ele><time>2016-08-10T16:13:57Z</time></trkpt>
<trkpt lat="46.47387" lon="6.79723"><ele>439</ele><time>2016-08-10T16:14:01Z</time></trkpt>
<trkpt lat="46.47389" lon="6.79717"><ele>439.2</ele><time>2016-08-10T16:14:02Z</time></trkpt>
<trkpt lat="46.47396" lon="6.79689"><ele>441</ele><time>2016-08-10T16:14:08Z</time></trkpt>
<trkpt lat="46.47404" lon="6.79663"><ele>441.6</ele><time>2016-08-10T16:14:16Z</time></trkpt>
<trkpt lat="46.4741" lon="6.79642"><ele>444</ele><time>2016-08-10T16:14:23Z</time></trkpt>
<trkpt lat="46.47411" lon="6.79635"><ele>445.4</ele><time>2016-08-10T16:14:25Z</time></trkpt>
<trkpt lat="46.47413" lon="6.79628"><ele>447.2</ele><time>2016-08-10T16:14:27Z</time></trkpt>
<trkpt lat="46.47422" lon="6.79606"><ele>451</ele><time>2016-08-10T16:14:34Z</time></trkpt>
<trkpt lat="46.47429" lon="6.79593"><ele>452</ele><time>2016-08-10T16:14:38Z</time></trkpt>
<trkpt lat="46.47435" lon="6.79582"><ele>452.6</ele><time>2016-08-10T16:14:42Z</time></trkpt>
<trkpt lat="46.47436" lon="6.79575"><ele>452.8</ele><time>2016-08-10T16:14:44Z</time></trkpt>
<trkpt lat="46.47435" lon="6.79571"><ele>452.4</ele><time>2016-08-10T16:14:45Z</time></trkpt>
<trkpt lat="46.47433" lon="6.79558"><ele>451.8</ele><time>2016-08-10T16:14:47Z</time></trkpt>
<trkpt lat="46.47436" lon="6.79527"><ele>451.4</ele><time>2016-08-10T16:14:51Z</time></trkpt>
<trkpt lat="46.47442" lon="6.79502"><ele>451.8</ele><time>2016-08-10T16:14:55Z</time></trkpt>
<trkpt lat="46.47446" lon="6.79476"><ele>452.6</ele><time>2016-08-10T16:15:00Z</time></trkpt>
<trkpt lat="46.4745" lon="6.7945"><ele>453.2</ele><time>2016-08-10T16:15:06Z</time></trkpt>
<trkpt lat="46.47457" lon="6.79424"><ele>454</ele><time>2016-08-10T16:15:12Z</time></trkpt>
<trkpt lat="46.47467" lon="6.794"><ele>454.6</ele><time>2016-08-10T16:15:18Z</time></trkpt>
<trkpt lat="46.47478" lon="6.79377"><ele>455.6</ele><time>2016-08-10T16:15:24Z</time></trkpt>
<trkpt lat="46.47488" lon="6.79354"><ele>456.2</ele><time>2016-08-10T16:15:30Z</time></trkpt>
<trkpt lat="46.47498" lon="6.79329"><ele>456.2</ele><time>2016-08-10T16:15:35Z</time></trkpt>
<trkpt lat="46.47511" lon="6.79299"><ele>456.4</ele><time>2016-08-10T16:15:41Z</time></trkpt>
<trkpt lat="46.47519" lon="6.79272"><ele>455</ele><time>2016-08-10T16:15:46Z</time></trkpt>
<trkpt lat="46.47518" lon="6.79259"><ele>454.2</ele><time>2016-08-10T16:15:51Z</time></trkpt>
<trkpt lat="46.47509" lon="6.79264"><ele>452</ele><time>2016-08-10T16:15:54Z</time></trkpt>
<trkpt lat="46.47505" lon="6.79276"><ele>448.6</ele><time>2016-08-10T16:15:56Z</time></trkpt>
<trkpt lat="46.47491" lon="6.79302"><ele>443.4</ele><time>2016-08-10T16:16:00Z</time></trkpt>
<trkpt lat="46.47481" lon="6.7931"><ele>440.8</ele><time>2016-08-10T16:16:03Z</time></trkpt>
<trkpt lat="46.47483" lon="6.79289"><ele>439.2</ele><time>2016-08-10T16:16:08Z</time></trkpt>
<trkpt lat="46.47493" lon="6.79268"><ele>439</ele><time>2016-08-10T16:16:12Z</time></trkpt>
<trkpt lat="46.47498" lon="6.79255"><ele>439</ele><time>2016-08-10T16:16:14Z</time></trkpt>
<trkpt lat="46.47504" lon="6.79236"><ele>438.8</ele><time>2016-08-10T16:16:17Z</time></trkpt>
<trkpt lat="46.47511" lon="6.79208"><ele>438.6</ele><time>2016-08-10T16:16:21Z</time></trkpt>
<trkpt lat="46.47518" lon="6.79179"><ele>438.4</ele><time>2016-08-10T16:16:25Z</time></trkpt>
<trkpt lat="46.47526" lon="6.7915"><ele>438.8</ele><time>2016-08-10T16:16:29Z</time></trkpt>
<trkpt lat="46.4753" lon="6.79136"><ele>439</ele><time>2016-08-10T16:16:31Z</time></trkpt>
<trkpt lat="46.4754" lon="6.7911"><ele>439.6</ele><time>2016-08-10T16:16:35Z</time></trkpt>
<trkpt lat="46.4755" lon="6.79086"><ele>440.6</ele><time>2016-08-10T16:16:39Z</time></trkpt>
<trkpt lat="46.47561" lon="6.79065"><ele>441.2</ele><time>2016-08-10T16:16:43Z</time></trkpt>
<trkpt lat="46.47575" lon="6.79044"><ele>442.4</ele><time>2016-08-10T16:16:48Z</time></trkpt>
<trkpt lat="46.47582" lon="6.79034"><ele>443.2</ele><time>2016-08-10T16:16:51Z</time></trkpt>
<trkpt lat="46.47595" lon="6.79015"><ele>444.6</ele><time>2016-08-10T16:16:57Z</time></trkpt>
<trkpt lat="46.47599" lon="6.79009"><ele>445.2</ele><time>2016-08-10T16:16:59Z</time></trkpt>
<trkpt lat="46.47611" lon="6.78986"><ele>447</ele><time>2016-08-10T16:17:06Z</time></trkpt>
<trkpt lat="46.47623" lon="6.78962"><ele>448.4</ele><time>2016-08-10T16:17:13Z</time></trkpt>
<trkpt lat="46.47642" lon="6.78927"><ele>450.8</ele><time>2016-08-10T16:17:24Z</time></trkpt>
<trkpt lat="46.47653" lon="6.78905"><ele>452.2</ele><time>2016-08-10T16:17:31Z</time></trkpt>
<trkpt lat="46.47654" lon="6.78901"><ele>452.4</ele><time>2016-08-10T16:17:32Z</time></trkpt>
<trkpt lat="46.47659" lon="6.78874"><ele>453.8</ele><time>2016-08-10T16:17:39Z</time></trkpt>
<trkpt lat="46.47663" lon="6.78847"><ele>454.6</ele><time>2016-08-10T16:17:46Z</time></trkpt>
<trkpt lat="46.47668" lon="6.78821"><ele>455.8</ele><time>2016-08-10T16:17:54Z</time></trkpt>
<trkpt lat="46.47673" lon="6.78794"><ele>457.4</ele><time>2016-08-10T16:18:02Z</time></trkpt>
<trkpt lat="46.47676" lon="6.78777"><ele>457.8</ele><time>2016-08-10T16:18:07Z</time></trkpt>
<trkpt lat="46.47681" lon="6.78749"><ele>458.8</ele><time>2016-08-10T16:18:15Z</time></trkpt>
<trkpt lat="46.47686" lon="6.78724"><ele>459.6</ele><time>2016-08-10T16:18:22Z</time></trkpt>
<trkpt lat="46.47692" lon="6.78697"><ele>460.8</ele><time>2016-08-10T16:18:29Z</time></trkpt>
<trkpt lat="46.47698" lon="6.78668"><ele>462</ele><time>2016-08-10T16:18:37Z</time></trkpt>
<trkpt lat="46.47703" lon="6.78641"><ele>463.2</ele><time>2016-08-10T16:18:44Z</time></trkpt>
<trkpt lat="46.47706" lon="6.78614"><ele>464.4</ele><time>2016-08-10T16:18:51Z</time></trkpt>
<trkpt lat="46.4771" lon="6.78595"><ele>465.4</ele><time>2016-08-10T16:18:58Z</time></trkpt>
<trkpt lat="46.47711" lon="6.78581"><ele>465.8</ele><time>2016-08-10T16:19:03Z</time></trkpt>
<trkpt lat="46.47715" lon="6.78555"><ele>467</ele><time>2016-08-10T16:19:13Z</time></trkpt>
<trkpt lat="46.47719" lon="6.78517"><ele>469.2</ele><time>2016-08-10T16:19:27Z</time></trkpt>
<trkpt lat="46.47725" lon="6.78491"><ele>470.6</ele><time>2016-08-10T16:19:37Z</time></trkpt>
<trkpt lat="46.47727" lon="6.78486"><ele>471</ele><time>2016-08-10T16:19:39Z</time></trkpt>
<trkpt lat="46.47735" lon="6.78461"><ele>472.2</ele><time>2016-08-10T16:19:49Z</time></trkpt>
<trkpt lat="46.47741" lon="6.78442"><ele>473</ele><time>2016-08-10T16:19:57Z</time></trkpt>
<trkpt lat="46.47748" lon="6.78417"><ele>474.4</ele><time>2016-08-10T16:20:07Z</time></trkpt>
<trkpt lat="46.47758" lon="6.78391"><ele>475.4</ele><time>2016-08-10T16:20:17Z</time></trkpt>
<trkpt lat="46.47767" lon="6.78368"><ele>476.4</ele><time>2016-08-10T16:20:26Z</time></trkpt>
<trkpt lat="46.47778" lon="6.78343"><ele>477.4</ele><time>2016-08-10T16:20:35Z</time></trkpt>
<trkpt lat="46.47785" lon="6.78328"><ele>478</ele><time>2016-08-10T16:20:41Z</time></trkpt>
<trkpt lat="46.47795" lon="6.78303"><ele>479</ele><time>2016-08-10T16:20:50Z</time></trkpt>
<trkpt lat="46.47805" lon="6.78279"><ele>480</ele><time>2016-08-10T16:20:59Z</time></trkpt>
<trkpt lat="46.47808" lon="6.78273"><ele>480.2</ele><time>2016-08-10T16:21:01Z</time></trkpt>
<trkpt lat="46.47822" lon="6.78243"><ele>482.6</ele><time>2016-08-10T16:21:13Z</time></trkpt>
<trkpt lat="46.47834" lon="6.7822"><ele>483.6</ele><time>2016-08-10T16:21:22Z</time></trkpt>
<trkpt lat="46.47844" lon="6.78196"><ele>483.8</ele><time>2016-08-10T16:21:30Z</time></trkpt>
<trkpt lat="46.47844" lon="6.78169"><ele>485.2</ele><time>2016-08-10T16:21:38Z</time></trkpt>
<trkpt lat="46.47837" lon="6.78143"><ele>486</ele><time>2016-08-10T16:21:46Z</time></trkpt>
<trkpt lat="46.47834" lon="6.78128"><ele>486.8</ele><time>2016-08-10T16:21:51Z</time></trkpt>
<trkpt lat="46.47847" lon="6.78114"><ele>488.8</ele><time>2016-08-10T16:22:01Z</time></trkpt>
<trkpt lat="46.47852" lon="6.78111"><ele>489.6</ele><time>2016-08-10T16:22:04Z</time></trkpt>
<trkpt lat="46.4786" lon="6.78107"><ele>491</ele><time>2016-08-10T16:22:09Z</time></trkpt>
<trkpt lat="46.47868" lon="6.78101"><ele>492.2</ele><time>2016-08-10T16:22:13Z</time></trkpt>
<trkpt lat="46.47872" lon="6.78093"><ele>492.4</ele><time>2016-08-10T16:22:16Z</time></trkpt>
<trkpt lat="46.47868" lon="6.78076"><ele>493.4</ele><time>2016-08-10T16:22:21Z</time></trkpt>
<trkpt lat="46.47854" lon="6.78054"><ele>493.2</ele><time>2016-08-10T16:22:30Z</time></trkpt>
<trkpt lat="46.47843" lon="6.78034"><ele>491.2</ele><time>2016-08-10T16:22:34Z</time></trkpt>
<trkpt lat="46.4784" lon="6.78025"><ele>489.8</ele><time>2016-08-10T16:22:35Z</time></trkpt>
<trkpt lat="46.47831" lon="6.77989"><ele>485.8</ele><time>2016-08-10T16:22:38Z</time></trkpt>
<trkpt lat="46.47826" lon="6.77961"><ele>484.2</ele><time>2016-08-10T16:22:40Z</time></trkpt>
<trkpt lat="46.47825" lon="6.77946"><ele>483.8</ele><time>2016-08-10T16:22:41Z</time></trkpt>
<trkpt lat="46.47825" lon="6.77918"><ele>482.6</ele><time>2016-08-10T16:22:43Z</time></trkpt>
<trkpt lat="46.47826" lon="6.77889"><ele>480.6</ele><time>2016-08-10T16:22:45Z</time></trkpt>
<trkpt lat="46.47825" lon="6.77859"><ele>479.4</ele><time>2016-08-10T16:22:47Z</time></trkpt>
<trkpt lat="46.4782" lon="6.77823"><ele>479.4</ele><time>2016-08-10T16:22:50Z</time></trkpt>
<trkpt lat="46.4781" lon="6.77794"><ele>479.2</ele><time>2016-08-10T16:22:53Z</time></trkpt>
<trkpt lat="46.47802" lon="6.77778"><ele>479</ele><time>2016-08-10T16:22:55Z</time></trkpt>
<trkpt lat="46.47793" lon="6.77764"><ele>479.8</ele><time>2016-08-10T16:22:57Z</time></trkpt>
<trkpt lat="46.47789" lon="6.77758"><ele>480.2</ele><time>2016-08-10T16:22:58Z</time></trkpt>
<trkpt lat="46.47783" lon="6.77748"><ele>480.8</ele><time>2016-08-10T16:23:00Z</time></trkpt>
<trkpt lat="46.47781" lon="6.77743"><ele>481.2</ele><time>2016-08-10T16:23:01Z</time></trkpt>
<trkpt lat="46.4777" lon="6.77727"><ele>482.8</ele><time>2016-08-10T16:23:05Z</time></trkpt>
<trkpt lat="46.47766" lon="6.77721"><ele>483.4</ele><time>2016-08-10T16:23:07Z</time></trkpt>
<trkpt lat="46.47763" lon="6.77708"><ele>484.6</ele><time>2016-08-10T16:23:12Z</time></trkpt>
<trkpt lat="46.47763" lon="6.77706"><ele>485</ele><time>2016-08-10T16:23:13Z</time></trkpt>
<trkpt lat="46.47764" lon="6.77699"><ele>486.2</ele><time>2016-08-10T16:23:17Z</time></trkpt>
<trkpt lat="46.47765" lon="6.77698"><ele>486.4</ele><time>2016-08-10T16:23:18Z</time></trkpt>
<trkpt lat="46.47766" lon="6.77695"><ele>487</ele><time>2016-08-10T16:23:20Z</time></trkpt>
<trkpt lat="46.47771" lon="6.77692"><ele>488.2</ele><time>2016-08-10T16:23:25Z</time></trkpt>
<trkpt lat="46.47775" lon="6.77689"><ele>488.8</ele><time>2016-08-10T16:23:29Z</time></trkpt>
<trkpt lat="46.47777" lon="6.77686"><ele>489.4</ele><time>2016-08-10T16:23:32Z</time></trkpt>
<trkpt lat="46.47778" lon="6.77683"><ele>489.8</ele><time>2016-08-10T16:23:35Z</time></trkpt>
<trkpt lat="46.47778" lon="6.77681"><ele>490</ele><time>2016-08-10T16:23:36Z</time></trkpt>
<trkpt lat="46.47779" lon="6.77679"><ele>490.4</ele><time>2016-08-10T16:23:38Z</time></trkpt>
<trkpt lat="46.47784" lon="6.77676"><ele>490.6</ele><time>2016-08-10T16:23:43Z</time></trkpt>
<trkpt lat="46.47792" lon="6.7767"><ele>491.6</ele><time>2016-08-10T16:23:51Z</time></trkpt>
<trkpt lat="46.47793" lon="6.77667"><ele>491.8</ele><time>2016-08-10T16:23:53Z</time></trkpt>
<trkpt lat="46.47798" lon="6.77663"><ele>492.4</ele><time>2016-08-10T16:23:58Z</time></trkpt>
<trkpt lat="46.47806" lon="6.77655"><ele>493.4</ele><time>2016-08-10T16:24:07Z</time></trkpt>
<trkpt lat="46.4781" lon="6.77652"><ele>494.4</ele><time>2016-08-10T16:24:12Z</time></trkpt>
<trkpt lat="46.47818" lon="6.7765"><ele>495.8</ele><time>2016-08-10T16:24:24Z</time></trkpt>
<trkpt lat="46.47835" lon="6.77639"><ele>499.2</ele><time>2016-08-10T16:24:46Z</time></trkpt>
<trkpt lat="46.47843" lon="6.7763"><ele>501.8</ele><time>2016-08-10T16:24:58Z</time></trkpt>
<trkpt lat="46.47862" lon="6.77622"><ele>506.2</ele><time>2016-08-10T16:25:15Z</time></trkpt>
<trkpt lat="46.47884" lon="6.77623"><ele>506.2</ele><time>2016-08-10T16:25:22Z</time></trkpt>
<trkpt lat="46.47904" lon="6.77616"><ele>504.8</ele><time>2016-08-10T16:25:26Z</time></trkpt>
<trkpt lat="46.47914" lon="6.77593"><ele>501.4</ele><time>2016-08-10T16:25:29Z</time></trkpt>
<trkpt lat="46.47909" lon="6.77568"><ele>499.2</ele><time>2016-08-10T16:25:32Z</time></trkpt>
<trkpt lat="46.479" lon="6.77555"><ele>498</ele><time>2016-08-10T16:25:34Z</time></trkpt>
<trkpt lat="46.47896" lon="6.7755"><ele>497.4</ele><time>2016-08-10T16:25:35Z</time></trkpt>
<trkpt lat="46.47886" lon="6.77523"><ele>494.8</ele><time>2016-08-10T16:25:39Z</time></trkpt>
<trkpt lat="46.47882" lon="6.77518"><ele>494.4</ele><time>2016-08-10T16:25:40Z</time></trkpt>
<trkpt lat="46.47868" lon="6.77495"><ele>494.8</ele><time>2016-08-10T16:25:44Z</time></trkpt>
<trkpt lat="46.47864" lon="6.77471"><ele>496</ele><time>2016-08-10T16:25:49Z</time></trkpt>
<trkpt lat="46.47862" lon="6.77462"><ele>497</ele><time>2016-08-10T16:25:51Z</time></trkpt>
<trkpt lat="46.47862" lon="6.77457"><ele>497.8</ele><time>2016-08-10T16:25:52Z</time></trkpt>
<trkpt lat="46.47862" lon="6.77428"><ele>497</ele><time>2016-08-10T16:25:57Z</time></trkpt>
<trkpt lat="46.47861" lon="6.77395"><ele>492.8</ele><time>2016-08-10T16:26:01Z</time></trkpt>
<trkpt lat="46.47862" lon="6.77362"><ele>490.4</ele><time>2016-08-10T16:26:04Z</time></trkpt>
<trkpt lat="46.47868" lon="6.77327"><ele>489.4</ele><time>2016-08-10T16:26:07Z</time></trkpt>
<trkpt lat="46.47871" lon="6.77317"><ele>489.2</ele><time>2016-08-10T16:26:08Z</time></trkpt>
<trkpt lat="46.47873" lon="6.77308"><ele>489</ele><time>2016-08-10T16:26:09Z</time></trkpt>
<trkpt lat="46.47864" lon="6.7728"><ele>486.6</ele><time>2016-08-10T16:26:12Z</time></trkpt>
<trkpt lat="46.47858" lon="6.7727"><ele>485.6</ele><time>2016-08-10T16:26:13Z</time></trkpt>
<trkpt lat="46.47845" lon="6.7725"><ele>484</ele><time>2016-08-10T16:26:15Z</time></trkpt>
<trkpt lat="46.47833" lon="6.77228"><ele>483.4</ele><time>2016-08-10T16:26:17Z</time></trkpt>
<trkpt lat="46.47822" lon="6.77208"><ele>483</ele><time>2016-08-10T16:26:19Z</time></trkpt>
<trkpt lat="46.47809" lon="6.77186"><ele>482.6</ele><time>2016-08-10T16:26:22Z</time></trkpt>
<trkpt lat="46.47805" lon="6.77178"><ele>482.2</ele><time>2016-08-10T16:26:25Z</time></trkpt>
<trkpt lat="46.47796" lon="6.77187"><ele>481.2</ele><time>2016-08-10T16:26:31Z</time></trkpt>
<trkpt lat="46.47784" lon="6.77207"><ele>479.6</ele><time>2016-08-10T16:26:35Z</time></trkpt>
<trkpt lat="46.47773" lon="6.77226"><ele>478.4</ele><time>2016-08-10T16:26:38Z</time></trkpt>
<trkpt lat="46.47758" lon="6.77249"><ele>476</ele><time>2016-08-10T16:26:41Z</time></trkpt>
<trkpt lat="46.47754" lon="6.77258"><ele>475.4</ele><time>2016-08-10T16:26:42Z</time></trkpt>
<trkpt lat="46.4775" lon="6.77269"><ele>474.4</ele><time>2016-08-10T16:26:43Z</time></trkpt>
<trkpt lat="46.47741" lon="6.77293"><ele>472.2</ele><time>2016-08-10T16:26:45Z</time></trkpt>
<trkpt lat="46.47728" lon="6.77317"><ele>469.2</ele><time>2016-08-10T16:26:47Z</time></trkpt>
<trkpt lat="46.47711" lon="6.77342"><ele>466.2</ele><time>2016-08-10T16:26:49Z</time></trkpt>
<trkpt lat="46.47696" lon="6.7737"><ele>463.6</ele><time>2016-08-10T16:26:51Z</time></trkpt>
<trkpt lat="46.47685" lon="6.774"><ele>461.8</ele><time>2016-08-10T16:26:53Z</time></trkpt>
<trkpt lat="46.47676" lon="6.77425"><ele>459.8</ele><time>2016-08-10T16:26:55Z</time></trkpt>
<trkpt lat="46.47664" lon="6.77452"><ele>457.4</ele><time>2016-08-10T16:26:58Z</time></trkpt>
<trkpt lat="46.47661" lon="6.77457"><ele>456.8</ele><time>2016-08-10T16:26:59Z</time></trkpt>
<trkpt lat="46.47656" lon="6.77464"><ele>456.6</ele><time>2016-08-10T16:27:01Z</time></trkpt>
<trkpt lat="46.47651" lon="6.77463"><ele>456.2</ele><time>2016-08-10T16:27:03Z</time></trkpt>
<trkpt lat="46.47655" lon="6.7744"><ele>456</ele><time>2016-08-10T16:27:08Z</time></trkpt>
<trkpt lat="46.47661" lon="6.77414"><ele>456</ele><time>2016-08-10T16:27:12Z</time></trkpt>
<trkpt lat="46.47668" lon="6.77393"><ele>455.6</ele><time>2016-08-10T16:27:15Z</time></trkpt>
<trkpt lat="46.47673" lon="6.77379"><ele>455.6</ele><time>2016-08-10T16:27:17Z</time></trkpt>
<trkpt lat="46.47676" lon="6.77373"><ele>455.4</ele><time>2016-08-10T16:27:18Z</time></trkpt>
<trkpt lat="46.47689" lon="6.77348"><ele>455</ele><time>2016-08-10T16:27:22Z</time></trkpt>
<trkpt lat="46.47702" lon="6.77321"><ele>453</ele><time>2016-08-10T16:27:26Z</time></trkpt>
<trkpt lat="46.4771" lon="6.77292"><ele>450.8</ele><time>2016-08-10T16:27:29Z</time></trkpt>
<trkpt lat="46.47712" lon="6.7728"><ele>449.8</ele><time>2016-08-10T16:27:30Z</time></trkpt>
<trkpt lat="46.47718" lon="6.77255"><ele>447.8</ele><time>2016-08-10T16:27:32Z</time></trkpt>
<trkpt lat="46.47726" lon="6.77227"><ele>445.8</ele><time>2016-08-10T16:27:34Z</time></trkpt>
<trkpt lat="46.47733" lon="6.77201"><ele>444.6</ele><time>2016-08-10T16:27:36Z</time></trkpt>
<trkpt lat="46.47741" lon="6.77169"><ele>443.8</ele><time>2016-08-10T16:27:39Z</time></trkpt>
<trkpt lat="46.47744" lon="6.77161"><ele>443.6</ele><time>2016-08-10T16:27:40Z</time></trkpt>
<trkpt lat="46.47757" lon="6.7714"><ele>444</ele><time>2016-08-10T16:27:43Z</time></trkpt>
<trkpt lat="46.47771" lon="6.77119"><ele>445.8</ele><time>2016-08-10T16:27:47Z</time></trkpt>
<trkpt lat="46.47781" lon="6.77095"><ele>447</ele><time>2016-08-10T16:27:52Z</time></trkpt>
<trkpt lat="46.4779" lon="6.77065"><ele>446.8</ele><time>2016-08-10T16:27:57Z</time></trkpt>
<trkpt lat="46.478" lon="6.77037"><ele>446.8</ele><time>2016-08-10T16:28:01Z</time></trkpt>
<trkpt lat="46.47802" lon="6.7703"><ele>446.6</ele><time>2016-08-10T16:28:02Z</time></trkpt>
<trkpt lat="46.47808" lon="6.77005"><ele>445.8</ele><time>2016-08-10T16:28:05Z</time></trkpt>
<trkpt lat="46.47818" lon="6.7698"><ele>445</ele><time>2016-08-10T16:28:08Z</time></trkpt>
<trkpt lat="46.47829" lon="6.76953"><ele>443.6</ele><time>2016-08-10T16:28:11Z</time></trkpt>
<trkpt lat="46.47832" lon="6.76943"><ele>443.2</ele><time>2016-08-10T16:28:12Z</time></trkpt>
<trkpt lat="46.4784" lon="6.76909"><ele>441.6</ele><time>2016-08-10T16:28:15Z</time></trkpt>
<trkpt lat="46.47848" lon="6.76874"><ele>439</ele><time>2016-08-10T16:28:18Z</time></trkpt>
<trkpt lat="46.47853" lon="6.76848"><ele>437.4</ele><time>2016-08-10T16:28:20Z</time></trkpt>
<trkpt lat="46.47859" lon="6.76822"><ele>435.8</ele><time>2016-08-10T16:28:22Z</time></trkpt>
<trkpt lat="46.47866" lon="6.76795"><ele>434.4</ele><time>2016-08-10T16:28:24Z</time></trkpt>
<trkpt lat="46.47874" lon="6.76769"><ele>433.2</ele><time>2016-08-10T16:28:26Z</time></trkpt>
<trkpt lat="46.47882" lon="6.76744"><ele>432</ele><time>2016-08-10T16:28:28Z</time></trkpt>
<trkpt lat="46.47892" lon="6.76722"><ele>432.2</ele><time>2016-08-10T16:28:30Z</time></trkpt>
<trkpt lat="46.47901" lon="6.76703"><ele>432.8</ele><time>2016-08-10T16:28:32Z</time></trkpt>
<trkpt lat="46.47904" lon="6.76694"><ele>433.4</ele><time>2016-08-10T16:28:33Z</time></trkpt>
<trkpt lat="46.47908" lon="6.76686"><ele>433.6</ele><time>2016-08-10T16:28:34Z</time></trkpt>
<trkpt lat="46.47911" lon="6.76679"><ele>433.6</ele><time>2016-08-10T16:28:35Z</time></trkpt>
<trkpt lat="46.47921" lon="6.76656"><ele>433.6</ele><time>2016-08-10T16:28:38Z</time></trkpt>
<trkpt lat="46.47933" lon="6.76626"><ele>433.6</ele><time>2016-08-10T16:28:42Z</time></trkpt>
<trkpt lat="46.47941" lon="6.76602"><ele>433.6</ele><time>2016-08-10T16:28:45Z</time></trkpt>
<trkpt lat="46.47949" lon="6.76576"><ele>433.6</ele><time>2016-08-10T16:28:48Z</time></trkpt>
<trkpt lat="46.47959" lon="6.76551"><ele>433.2</ele><time>2016-08-10T16:28:51Z</time></trkpt>
<trkpt lat="46.47968" lon="6.76521"><ele>432.8</ele><time>2016-08-10T16:28:54Z</time></trkpt>
<trkpt lat="46.4797" lon="6.76512"><ele>433</ele><time>2016-08-10T16:28:55Z</time></trkpt>
<trkpt lat="46.47975" lon="6.76486"><ele>434.2</ele><time>2016-08-10T16:28:58Z</time></trkpt>
<trkpt lat="46.4798" lon="6.76464"><ele>434</ele><time>2016-08-10T16:29:01Z</time></trkpt>
<trkpt lat="46.47992" lon="6.76435"><ele>432.8</ele><time>2016-08-10T16:29:05Z</time></trkpt>
<trkpt lat="46.48002" lon="6.76412"><ele>432.6</ele><time>2016-08-10T16:29:08Z</time></trkpt>
<trkpt lat="46.48014" lon="6.76388"><ele>433.8</ele><time>2016-08-10T16:29:12Z</time></trkpt>
<trkpt lat="46.4802" lon="6.76378"><ele>435</ele><time>2016-08-10T16:29:15Z</time></trkpt>
<trkpt lat="46.48029" lon="6.76367"><ele>436.6</ele><time>2016-08-10T16:29:19Z</time></trkpt>
<trkpt lat="46.48043" lon="6.76348"><ele>439.4</ele><time>2016-08-10T16:29:24Z</time></trkpt>
<trkpt lat="46.48048" lon="6.76339"><ele>440.6</ele><time>2016-08-10T16:29:26Z</time></trkpt>
<trkpt lat="46.48053" lon="6.76329"><ele>441.8</ele><time>2016-08-10T16:29:28Z</time></trkpt>
<trkpt lat="46.48056" lon="6.76324"><ele>442.2</ele><time>2016-08-10T16:29:29Z</time></trkpt>
<trkpt lat="46.48062" lon="6.76313"><ele>442.8</ele><time>2016-08-10T16:29:31Z</time></trkpt>
<trkpt lat="46.48071" lon="6.76291"><ele>442.8</ele><time>2016-08-10T16:29:35Z</time></trkpt>
<trkpt lat="46.48084" lon="6.76265"><ele>440</ele><time>2016-08-10T16:29:40Z</time></trkpt>
<trkpt lat="46.48096" lon="6.76243"><ele>439.4</ele><time>2016-08-10T16:29:44Z</time></trkpt>
<trkpt lat="46.48105" lon="6.76226"><ele>439.2</ele><time>2016-08-10T16:29:47Z</time></trkpt>
<trkpt lat="46.48108" lon="6.7622"><ele>439.2</ele><time>2016-08-10T16:29:48Z</time></trkpt>
<trkpt lat="46.48118" lon="6.76205"><ele>439.4</ele><time>2016-08-10T16:29:51Z</time></trkpt>
<trkpt lat="46.48133" lon="6.76182"><ele>439.8</ele><time>2016-08-10T16:29:56Z</time></trkpt>
<trkpt lat="46.48145" lon="6.76162"><ele>440.8</ele><time>2016-08-10T16:30:01Z</time></trkpt>
<trkpt lat="46.48156" lon="6.76141"><ele>442.2</ele><time>2016-08-10T16:30:07Z</time></trkpt>
<trkpt lat="46.48168" lon="6.76115"><ele>443.2</ele><time>2016-08-10T16:30:14Z</time></trkpt>
<trkpt lat="46.48179" lon="6.76085"><ele>441.2</ele><time>2016-08-10T16:30:19Z</time></trkpt>
<trkpt lat="46.48183" lon="6.76077"><ele>441</ele><time>2016-08-10T16:30:20Z</time></trkpt>
<trkpt lat="46.48195" lon="6.76056"><ele>440.8</ele><time>2016-08-10T16:30:23Z</time></trkpt>
<trkpt lat="46.48208" lon="6.76037"><ele>445.8</ele><time>2016-08-10T16:30:27Z</time></trkpt>
<trkpt lat="46.48216" lon="6.76027"><ele>447</ele><time>2016-08-10T16:30:30Z</time></trkpt>
<trkpt lat="46.48234" lon="6.7601"><ele>446.8</ele><time>2016-08-10T16:30:36Z</time></trkpt>
<trkpt lat="46.48249" lon="6.75992"><ele>446.6</ele><time>2016-08-10T16:30:41Z</time></trkpt>
<trkpt lat="46.48275" lon="6.7596"><ele>447</ele><time>2016-08-10T16:30:50Z</time></trkpt>
<trkpt lat="46.48291" lon="6.7594"><ele>447.2</ele><time>2016-08-10T16:30:55Z</time></trkpt>
<trkpt lat="46.48304" lon="6.75923"><ele>446.8</ele><time>2016-08-10T16:30:59Z</time></trkpt>
<trkpt lat="46.4832" lon="6.75905"><ele>446.2</ele><time>2016-08-10T16:31:03Z</time></trkpt>
<trkpt lat="46.48335" lon="6.75888"><ele>446</ele><time>2016-08-10T16:31:07Z</time></trkpt>
<trkpt lat="46.48342" lon="6.7588"><ele>445.8</ele><time>2016-08-10T16:31:09Z</time></trkpt>
<trkpt lat="46.48354" lon="6.75865"><ele>445.6</ele><time>2016-08-10T16:31:13Z</time></trkpt>
<trkpt lat="46.4837" lon="6.75845"><ele>445.2</ele><time>2016-08-10T16:31:19Z</time></trkpt>
<trkpt lat="46.48381" lon="6.75823"><ele>444</ele><time>2016-08-10T16:31:23Z</time></trkpt>
<trkpt lat="46.48385" lon="6.75817"><ele>443.8</ele><time>2016-08-10T16:31:24Z</time></trkpt>
<trkpt lat="46.48404" lon="6.75799"><ele>444.8</ele><time>2016-08-10T16:31:28Z</time></trkpt>
<trkpt lat="46.48418" lon="6.75788"><ele>446.6</ele><time>2016-08-10T16:31:31Z</time></trkpt>
<trkpt lat="46.48422" lon="6.75784"><ele>447</ele><time>2016-08-10T16:31:32Z</time></trkpt>
<trkpt lat="46.48437" lon="6.75765"><ele>447.4</ele><time>2016-08-10T16:31:35Z</time></trkpt>
<trkpt lat="46.48453" lon="6.75743"><ele>447.2</ele><time>2016-08-10T16:31:38Z</time></trkpt>
<trkpt lat="46.48468" lon="6.7572"><ele>446.6</ele><time>2016-08-10T16:31:41Z</time></trkpt>
<trkpt lat="46.48478" lon="6.75704"><ele>446.8</ele><time>2016-08-10T16:31:43Z</time></trkpt>
<trkpt lat="46.48485" lon="6.75688"><ele>447</ele><time>2016-08-10T16:31:45Z</time></trkpt>
<trkpt lat="46.48493" lon="6.75674"><ele>447</ele><time>2016-08-10T16:31:47Z</time></trkpt>
<trkpt lat="46.48508" lon="6.75656"><ele>445.6</ele><time>2016-08-10T16:31:50Z</time></trkpt>
<trkpt lat="46.48518" lon="6.75643"><ele>445.8</ele><time>2016-08-10T16:31:52Z</time></trkpt>
<trkpt lat="46.48527" lon="6.7563"><ele>445.4</ele><time>2016-08-10T16:31:54Z</time></trkpt>
<trkpt lat="46.48539" lon="6.75605"><ele>444</ele><time>2016-08-10T16:31:57Z</time></trkpt>
<trkpt lat="46.48551" lon="6.75578"><ele>442.6</ele><time>2016-08-10T16:32:00Z</time></trkpt>
<trkpt lat="46.48565" lon="6.75547"><ele>440.4</ele><time>2016-08-10T16:32:03Z</time></trkpt>
<trkpt lat="46.48576" lon="6.75525"><ele>438</ele><time>2016-08-10T16:32:05Z</time></trkpt>
<trkpt lat="46.48589" lon="6.75504"><ele>437.8</ele><time>2016-08-10T16:32:07Z</time></trkpt>
<trkpt lat="46.48609" lon="6.75482"><ele>437.6</ele><time>2016-08-10T16:32:10Z</time></trkpt>
<trkpt lat="46.48629" lon="6.75465"><ele>438.4</ele><time>2016-08-10T16:32:13Z</time></trkpt>
<trkpt lat="46.48645" lon="6.7545"><ele>439.6</ele><time>2016-08-10T16:32:16Z</time></trkpt>
<trkpt lat="46.48661" lon="6.75433"><ele>440.4</ele><time>2016-08-10T16:32:20Z</time></trkpt>
<trkpt lat="46.48678" lon="6.75413"><ele>439.2</ele><time>2016-08-10T16:32:24Z</time></trkpt>
<trkpt lat="46.48688" lon="6.754"><ele>438</ele><time>2016-08-10T16:32:26Z</time></trkpt>
<trkpt lat="46.48702" lon="6.75373"><ele>435.8</ele><time>2016-08-10T16:32:29Z</time></trkpt>
<trkpt lat="46.48713" lon="6.75353"><ele>434.4</ele><time>2016-08-10T16:32:31Z</time></trkpt>
<trkpt lat="46.48729" lon="6.75325"><ele>435.2</ele><time>2016-08-10T16:32:34Z</time></trkpt>
<trkpt lat="46.48742" lon="6.75302"><ele>437.2</ele><time>2016-08-10T16:32:38Z</time></trkpt>
<trkpt lat="46.48755" lon="6.75277"><ele>438</ele><time>2016-08-10T16:32:43Z</time></trkpt>
<trkpt lat="46.48768" lon="6.75251"><ele>438.4</ele><time>2016-08-10T16:32:48Z</time></trkpt>
<trkpt lat="46.48781" lon="6.75231"><ele>439</ele><time>2016-08-10T16:32:52Z</time></trkpt>
<trkpt lat="46.48784" lon="6.75226"><ele>439.2</ele><time>2016-08-10T16:32:53Z</time></trkpt>
<trkpt lat="46.48789" lon="6.75214"><ele>439.4</ele><time>2016-08-10T16:32:55Z</time></trkpt>
<trkpt lat="46.48799" lon="6.75186"><ele>438.6</ele><time>2016-08-10T16:32:59Z</time></trkpt>
<trkpt lat="46.48807" lon="6.75169"><ele>437</ele><time>2016-08-10T16:33:01Z</time></trkpt>
<trkpt lat="46.48822" lon="6.75142"><ele>435.4</ele><time>2016-08-10T16:33:04Z</time></trkpt>
<trkpt lat="46.48827" lon="6.75132"><ele>435.4</ele><time>2016-08-10T16:33:05Z</time></trkpt>
<trkpt lat="46.48835" lon="6.75101"><ele>437</ele><time>2016-08-10T16:33:08Z</time></trkpt>
<trkpt lat="46.4884" lon="6.75073"><ele>438.2</ele><time>2016-08-10T16:33:11Z</time></trkpt>
<trkpt lat="46.48844" lon="6.75056"><ele>438.6</ele><time>2016-08-10T16:33:13Z</time></trkpt>
<trkpt lat="46.48856" lon="6.7503"><ele>439.2</ele><time>2016-08-10T16:33:17Z</time></trkpt>
<trkpt lat="46.4886" lon="6.75025"><ele>439.2</ele><time>2016-08-10T16:33:18Z</time></trkpt>
<trkpt lat="46.48864" lon="6.75019"><ele>439</ele><time>2016-08-10T16:33:19Z</time></trkpt>
<trkpt lat="46.48878" lon="6.75003"><ele>438.4</ele><time>2016-08-10T16:33:22Z</time></trkpt>
<trkpt lat="46.48896" lon="6.7499"><ele>437.6</ele><time>2016-08-10T16:33:25Z</time></trkpt>
<trkpt lat="46.48916" lon="6.74976"><ele>437.2</ele><time>2016-08-10T16:33:28Z</time></trkpt>
<trkpt lat="46.48931" lon="6.74952"><ele>437</ele><time>2016-08-10T16:33:31Z</time></trkpt>
<trkpt lat="46.4894" lon="6.74923"><ele>436.6</ele><time>2016-08-10T16:33:34Z</time></trkpt>
<trkpt lat="46.48943" lon="6.74901"><ele>435.8</ele><time>2016-08-10T16:33:36Z</time></trkpt>
<trkpt lat="46.48949" lon="6.74864"><ele>432</ele><time>2016-08-10T16:33:39Z</time></trkpt>
<trkpt lat="46.48953" lon="6.74838"><ele>430.8</ele><time>2016-08-10T16:33:41Z</time></trkpt>
<trkpt lat="46.48958" lon="6.74813"><ele>429.2</ele><time>2016-08-10T16:33:43Z</time></trkpt>
<trkpt lat="46.48966" lon="6.74788"><ele>427.2</ele><time>2016-08-10T16:33:45Z</time></trkpt>
<trkpt lat="46.48976" lon="6.74762"><ele>425.2</ele><time>2016-08-10T16:33:47Z</time></trkpt>
<trkpt lat="46.48986" lon="6.74736"><ele>424.4</ele><time>2016-08-10T16:33:49Z</time></trkpt>
<trkpt lat="46.48995" lon="6.74713"><ele>425</ele><time>2016-08-10T16:33:51Z</time></trkpt>
<trkpt lat="46.49003" lon="6.74696"><ele>426.8</ele><time>2016-08-10T16:33:53Z</time></trkpt>
<trkpt lat="46.49016" lon="6.74673"><ele>428.2</ele><time>2016-08-10T16:33:57Z</time></trkpt>
<trkpt lat="46.49032" lon="6.74647"><ele>426.8</ele><time>2016-08-10T16:34:01Z</time></trkpt>
<trkpt lat="46.49042" lon="6.7463"><ele>425.4</ele><time>2016-08-10T16:34:03Z</time></trkpt>
<trkpt lat="46.49059" lon="6.74602"><ele>426.2</ele><time>2016-08-10T16:34:06Z</time></trkpt>
<trkpt lat="46.49067" lon="6.74586"><ele>428.2</ele><time>2016-08-10T16:34:08Z</time></trkpt>
<trkpt lat="46.49075" lon="6.74555"><ele>429.2</ele><time>2016-08-10T16:34:12Z</time></trkpt>
<trkpt lat="46.49076" lon="6.74546"><ele>429</ele><time>2016-08-10T16:34:13Z</time></trkpt>
<trkpt lat="46.49077" lon="6.74527"><ele>429</ele><time>2016-08-10T16:34:15Z</time></trkpt>
<trkpt lat="46.49083" lon="6.74496"><ele>429</ele><time>2016-08-10T16:34:19Z</time></trkpt>
<trkpt lat="46.49087" lon="6.7448"><ele>429.4</ele><time>2016-08-10T16:34:22Z</time></trkpt>
<trkpt lat="46.49098" lon="6.74466"><ele>431.6</ele><time>2016-08-10T16:34:33Z</time></trkpt>
<trkpt lat="46.49098" lon="6.74465"><ele>431.8</ele><time>2016-08-10T16:34:34Z</time></trkpt>
<trkpt lat="46.49111" lon="6.74463"><ele>433</ele><time>2016-08-10T16:34:46Z</time></trkpt>
<trkpt lat="46.49128" lon="6.74453"><ele>435.6</ele><time>2016-08-10T16:35:03Z</time></trkpt>
<trkpt lat="46.49138" lon="6.74437"><ele>438.2</ele><time>2016-08-10T16:35:18Z</time></trkpt>
<trkpt lat="46.4914" lon="6.74422"><ele>439.6</ele><time>2016-08-10T16:35:27Z</time></trkpt>
<trkpt lat="46.49145" lon="6.74398"><ele>442.2</ele><time>2016-08-10T16:35:43Z</time></trkpt>
<trkpt lat="46.49158" lon="6.74388"><ele>444</ele><time>2016-08-10T16:35:54Z</time></trkpt>
<trkpt lat="46.49174" lon="6.74374"><ele>446.4</ele><time>2016-08-10T16:36:09Z</time></trkpt>
<trkpt lat="46.49192" lon="6.74366"><ele>448.8</ele><time>2016-08-10T16:36:23Z</time></trkpt>
<trkpt lat="46.49192" lon="6.74352"><ele>447.8</ele><time>2016-08-10T16:36:27Z</time></trkpt>
<trkpt lat="46.49194" lon="6.74322"><ele>442</ele><time>2016-08-10T16:36:30Z</time></trkpt>
<trkpt lat="46.49192" lon="6.74294"><ele>439.6</ele><time>2016-08-10T16:36:32Z</time></trkpt>
<trkpt lat="46.49188" lon="6.74264"><ele>437.6</ele><time>2016-08-10T16:36:34Z</time></trkpt>
<trkpt lat="46.49182" lon="6.74233"><ele>435.8</ele><time>2016-08-10T16:36:36Z</time></trkpt>
<trkpt lat="46.49177" lon="6.74204"><ele>434</ele><time>2016-08-10T16:36:38Z</time></trkpt>
<trkpt lat="46.49172" lon="6.74169"><ele>431.8</ele><time>2016-08-10T16:36:41Z</time></trkpt>
<trkpt lat="46.49167" lon="6.74134"><ele>428.8</ele><time>2016-08-10T16:36:44Z</time></trkpt>
<trkpt lat="46.4916" lon="6.74111"><ele>426.4</ele><time>2016-08-10T16:36:46Z</time></trkpt>
<trkpt lat="46.49154" lon="6.7409"><ele>424</ele><time>2016-08-10T16:36:48Z</time></trkpt>
<trkpt lat="46.49149" lon="6.74054"><ele>419.2</ele><time>2016-08-10T16:36:51Z</time></trkpt>
<trkpt lat="46.49149" lon="6.74018"><ele>414.2</ele><time>2016-08-10T16:36:54Z</time></trkpt>
<trkpt lat="46.49148" lon="6.73995"><ele>411</ele><time>2016-08-10T16:36:56Z</time></trkpt>
<trkpt lat="46.49146" lon="6.73983"><ele>409.2</ele><time>2016-08-10T16:36:57Z</time></trkpt>
<trkpt lat="46.49134" lon="6.73951"><ele>404.6</ele><time>2016-08-10T16:37:00Z</time></trkpt>
<trkpt lat="46.49122" lon="6.73934"><ele>401.6</ele><time>2016-08-10T16:37:02Z</time></trkpt>
<trkpt lat="46.49112" lon="6.73918"><ele>399.4</ele><time>2016-08-10T16:37:04Z</time></trkpt>
<trkpt lat="46.49109" lon="6.73911"><ele>398.8</ele><time>2016-08-10T16:37:05Z</time></trkpt>
<trkpt lat="46.49107" lon="6.73882"><ele>396.8</ele><time>2016-08-10T16:37:08Z</time></trkpt>
<trkpt lat="46.49111" lon="6.73862"><ele>396.6</ele><time>2016-08-10T16:37:10Z</time></trkpt>
<trkpt lat="46.49117" lon="6.73833"><ele>396.2</ele><time>2016-08-10T16:37:13Z</time></trkpt>
<trkpt lat="46.49122" lon="6.73803"><ele>396</ele><time>2016-08-10T16:37:16Z</time></trkpt>
<trkpt lat="46.49125" lon="6.73783"><ele>396</ele><time>2016-08-10T16:37:18Z</time></trkpt>
<trkpt lat="46.49128" lon="6.73753"><ele>395.8</ele><time>2016-08-10T16:37:21Z</time></trkpt>
<trkpt lat="46.4913" lon="6.73723"><ele>395.4</ele><time>2016-08-10T16:37:24Z</time></trkpt>
<trkpt lat="46.4913" lon="6.73693"><ele>395.6</ele><time>2016-08-10T16:37:27Z</time></trkpt>
<trkpt lat="46.49129" lon="6.73665"><ele>396</ele><time>2016-08-10T16:37:30Z</time></trkpt>
<trkpt lat="46.49128" lon="6.73631"><ele>395.6</ele><time>2016-08-10T16:37:34Z</time></trkpt>
<trkpt lat="46.49128" lon="6.73599"><ele>393.6</ele><time>2016-08-10T16:37:37Z</time></trkpt>
<trkpt lat="46.49125" lon="6.73562"><ele>391.6</ele><time>2016-08-10T16:37:40Z</time></trkpt>
<trkpt lat="46.49118" lon="6.73536"><ele>390</ele><time>2016-08-10T16:37:42Z</time></trkpt>
<trkpt lat="46.49109" lon="6.73512"><ele>389.4</ele><time>2016-08-10T16:37:44Z</time></trkpt>
<trkpt lat="46.49104" lon="6.73486"><ele>389.2</ele><time>2016-08-10T16:37:46Z</time></trkpt>
<trkpt lat="46.49099" lon="6.73449"><ele>389.2</ele><time>2016-08-10T16:37:49Z</time></trkpt>
<trkpt lat="46.49091" lon="6.73415"><ele>389.2</ele><time>2016-08-10T16:37:52Z</time></trkpt>
<trkpt lat="46.49082" lon="6.73383"><ele>389.2</ele><time>2016-08-10T16:37:55Z</time></trkpt>
<trkpt lat="46.49072" lon="6.73352"><ele>389.4</ele><time>2016-08-10T16:37:58Z</time></trkpt>
<trkpt lat="46.49064" lon="6.73322"><ele>389.4</ele><time>2016-08-10T16:38:01Z</time></trkpt>
<trkpt lat="46.49058" lon="6.73294"><ele>389.6</ele><time>2016-08-10T16:38:04Z</time></trkpt>
<trkpt lat="46.49052" lon="6.73268"><ele>389.8</ele><time>2016-08-10T16:38:07Z</time></trkpt>
<trkpt lat="46.49045" lon="6.73244"><ele>389.2</ele><time>2016-08-10T16:38:10Z</time></trkpt>
<trkpt lat="46.49039" lon="6.73216"><ele>389.6</ele><time>2016-08-10T16:38:14Z</time></trkpt>
<trkpt lat="46.49032" lon="6.73191"><ele>392.2</ele><time>2016-08-10T16:38:18Z</time></trkpt>
<trkpt lat="46.49025" lon="6.73166"><ele>393.6</ele><time>2016-08-10T16:38:22Z</time></trkpt>
<trkpt lat="46.49015" lon="6.73138"><ele>393.8</ele><time>2016-08-10T16:38:27Z</time></trkpt>
<trkpt lat="46.49005" lon="6.73115"><ele>394</ele><time>2016-08-10T16:38:31Z</time></trkpt>
<trkpt lat="46.48995" lon="6.73089"><ele>392.8</ele><time>2016-08-10T16:38:35Z</time></trkpt>
<trkpt lat="46.48992" lon="6.73081"><ele>392.4</ele><time>2016-08-10T16:38:36Z</time></trkpt>
<trkpt lat="46.48986" lon="6.73064"><ele>391</ele><time>2016-08-10T16:38:38Z</time></trkpt>
<trkpt lat="46.48976" lon="6.73037"><ele>389.4</ele><time>2016-08-10T16:38:41Z</time></trkpt>
<trkpt lat="46.48967" lon="6.73012"><ele>389.6</ele><time>2016-08-10T16:38:44Z</time></trkpt>
<trkpt lat="46.48958" lon="6.72988"><ele>389.4</ele><time>2016-08-10T16:38:47Z</time></trkpt>
<trkpt lat="46.48947" lon="6.72957"><ele>389.6</ele><time>2016-08-10T16:38:51Z</time></trkpt>
<trkpt lat="46.48944" lon="6.7295"><ele>389.6</ele><time>2016-08-10T16:38:52Z</time></trkpt>
<trkpt lat="46.48933" lon="6.72918"><ele>389</ele><time>2016-08-10T16:38:56Z</time></trkpt>
<trkpt lat="46.48924" lon="6.72893"><ele>388</ele><time>2016-08-10T16:38:59Z</time></trkpt>
<trkpt lat="46.48916" lon="6.72866"><ele>387</ele><time>2016-08-10T16:39:02Z</time></trkpt>
<trkpt lat="46.48909" lon="6.72838"><ele>386</ele><time>2016-08-10T16:39:05Z</time></trkpt>
<trkpt lat="46.48901" lon="6.7281"><ele>385.6</ele><time>2016-08-10T16:39:08Z</time></trkpt>
<trkpt lat="46.48895" lon="6.72786"><ele>385</ele><time>2016-08-10T16:39:11Z</time></trkpt>
<trkpt lat="46.48895" lon="6.7278"><ele>385</ele><time>2016-08-10T16:39:12Z</time></trkpt>
<trkpt lat="46.48906" lon="6.72758"><ele>385.8</ele><time>2016-08-10T16:39:19Z</time></trkpt>
<trkpt lat="46.48908" lon="6.72745"><ele>386.4</ele><time>2016-08-10T16:39:23Z</time></trkpt>
<trkpt lat="46.48902" lon="6.72738"><ele>387.4</ele><time>2016-08-10T16:39:29Z</time></trkpt>
<trkpt lat="46.48902" lon="6.72723"><ele>388.4</ele><time>2016-08-10T16:39:33Z</time></trkpt>
<trkpt lat="46.48904" lon="6.72707"><ele>389.4</ele><time>2016-08-10T16:39:36Z</time></trkpt>
<trkpt lat="46.48909" lon="6.72685"><ele>390.6</ele><time>2016-08-10T16:39:40Z</time></trkpt>
<trkpt lat="46.48899" lon="6.72673"><ele>391</ele><time>2016-08-10T16:39:44Z</time></trkpt>
<trkpt lat="46.48891" lon="6.72676"><ele>391</ele><time>2016-08-10T16:39:46Z</time></trkpt>
<trkpt lat="46.4887" lon="6.72673"><ele>392</ele><time>2016-08-10T16:39:51Z</time></trkpt>
<trkpt lat="46.48858" lon="6.72652"><ele>393</ele><time>2016-08-10T16:39:55Z</time></trkpt>
<trkpt lat="46.4886" lon="6.72627"><ele>393</ele><time>2016-08-10T16:39:59Z</time></trkpt>
<trkpt lat="46.4886" lon="6.72622"><ele>393</ele><time>2016-08-10T16:40:00Z</time></trkpt>
<trkpt lat="46.48856" lon="6.72601"><ele>392.4</ele><time>2016-08-10T16:40:04Z</time></trkpt>
<trkpt lat="46.48847" lon="6.72574"><ele>391.6</ele><time>2016-08-10T16:40:10Z</time></trkpt>
<trkpt lat="46.48845" lon="6.72566"><ele>391</ele><time>2016-08-10T16:40:12Z</time></trkpt>
<trkpt lat="46.48839" lon="6.7256"><ele>390.6</ele><time>2016-08-10T16:40:19Z</time></trkpt>
<trkpt lat="46.48839" lon="6.7256"><ele>390.2</ele><time>2016-08-10T16:40:21Z</time></trkpt>
</trkseg></trk></gpx>